<?xml version="1.0" encoding="UTF-8" standalone="no" ?>
<gpx xmlns="http://www.topografix.com/GPX/1/1" xmlns:xsi="http://www.w3.org/2001/XMLSchema-instance" xsi:schemaLocation="http://www.topografix.com/GPX/1/1 http://www.topografix.com/GPX/1/1/gpx.xsd" version="1.1" creator="VisuGPX - https://www.visugpx.com">
  <metadata>
    <name>Trail de Pelasque Garmin eTrex</name>
    <desc><![CDATA[Trace récupérée avec un Garmin Etrex]]></desc>
  </metadata>
  <trk>
    <name><![CDATA[ACTIVE LOG]]></name>
    <trkseg>
      <trkpt lat="43.95571" lon="7.28003">
        <ele>654.3146973</ele>
        <time>2012-08-19T07:03:31Z</time>
      </trkpt>
      <trkpt lat="43.95562" lon="7.27989">
        <ele>653.8339844</ele>
        <time>2012-08-19T07:03:38Z</time>
      </trkpt>
      <trkpt lat="43.9555" lon="7.27971">
        <ele>653.8339844</ele>
        <time>2012-08-19T07:03:46Z</time>
      </trkpt>
      <trkpt lat="43.95529" lon="7.27974">
        <ele>654.3146973</ele>
        <time>2012-08-19T07:03:56Z</time>
      </trkpt>
      <trkpt lat="43.95524" lon="7.27972">
        <ele>653.8339844</ele>
        <time>2012-08-19T07:03:59Z</time>
      </trkpt>
      <trkpt lat="43.95531" lon="7.27952">
        <ele>655.2758789</ele>
        <time>2012-08-19T07:04:07Z</time>
      </trkpt>
      <trkpt lat="43.95547" lon="7.27923">
        <ele>655.7565918</ele>
        <time>2012-08-19T07:04:21Z</time>
      </trkpt>
      <trkpt lat="43.95554" lon="7.27924">
        <ele>659.1210938</ele>
        <time>2012-08-19T07:04:37Z</time>
      </trkpt>
      <trkpt lat="43.95562" lon="7.27921">
        <ele>661.0437012</ele>
        <time>2012-08-19T07:04:47Z</time>
      </trkpt>
      <trkpt lat="43.9557" lon="7.27913">
        <ele>662.9663086</ele>
        <time>2012-08-19T07:04:56Z</time>
      </trkpt>
      <trkpt lat="43.95579" lon="7.27905">
        <ele>667.7727051</ele>
        <time>2012-08-19T07:05:14Z</time>
      </trkpt>
      <trkpt lat="43.9558" lon="7.27906">
        <ele>668.734375</ele>
        <time>2012-08-19T07:05:16Z</time>
      </trkpt>
      <trkpt lat="43.95585" lon="7.27899">
        <ele>671.1376953</ele>
        <time>2012-08-19T07:05:28Z</time>
      </trkpt>
      <trkpt lat="43.95588" lon="7.27895">
        <ele>672.5795898</ele>
        <time>2012-08-19T07:05:31Z</time>
      </trkpt>
      <trkpt lat="43.95592" lon="7.27898">
        <ele>673.5410156</ele>
        <time>2012-08-19T07:05:38Z</time>
      </trkpt>
      <trkpt lat="43.956" lon="7.2789">
        <ele>676.9055176</ele>
        <time>2012-08-19T07:05:54Z</time>
      </trkpt>
      <trkpt lat="43.956" lon="7.27903">
        <ele>679.7893066</ele>
        <time>2012-08-19T07:06:07Z</time>
      </trkpt>
      <trkpt lat="43.95604" lon="7.27911">
        <ele>683.6345215</ele>
        <time>2012-08-19T07:06:19Z</time>
      </trkpt>
      <trkpt lat="43.95608" lon="7.27916">
        <ele>685.0769043</ele>
        <time>2012-08-19T07:06:26Z</time>
      </trkpt>
      <trkpt lat="43.95613" lon="7.27921">
        <ele>685.0769043</ele>
        <time>2012-08-19T07:06:30Z</time>
      </trkpt>
      <trkpt lat="43.95621" lon="7.27926">
        <ele>687.4799805</ele>
        <time>2012-08-19T07:06:35Z</time>
      </trkpt>
      <trkpt lat="43.95635" lon="7.27936">
        <ele>689.4025879</ele>
        <time>2012-08-19T07:06:46Z</time>
      </trkpt>
      <trkpt lat="43.95644" lon="7.27936">
        <ele>690.3640137</ele>
        <time>2012-08-19T07:06:49Z</time>
      </trkpt>
      <trkpt lat="43.95668" lon="7.27932">
        <ele>693.7285156</ele>
        <time>2012-08-19T07:07:00Z</time>
      </trkpt>
      <trkpt lat="43.95687" lon="7.2792">
        <ele>694.2092285</ele>
        <time>2012-08-19T07:07:10Z</time>
      </trkpt>
      <trkpt lat="43.95711" lon="7.27923">
        <ele>695.1704102</ele>
        <time>2012-08-19T07:07:21Z</time>
      </trkpt>
      <trkpt lat="43.9574" lon="7.27905">
        <ele>695.1704102</ele>
        <time>2012-08-19T07:07:35Z</time>
      </trkpt>
      <trkpt lat="43.95771" lon="7.27884">
        <ele>696.1318359</ele>
        <time>2012-08-19T07:07:51Z</time>
      </trkpt>
      <trkpt lat="43.95793" lon="7.27883">
        <ele>693.7285156</ele>
        <time>2012-08-19T07:08:03Z</time>
      </trkpt>
      <trkpt lat="43.95803" lon="7.2789">
        <ele>692.2866211</ele>
        <time>2012-08-19T07:08:07Z</time>
      </trkpt>
      <trkpt lat="43.95818" lon="7.27893">
        <ele>690.8444824</ele>
        <time>2012-08-19T07:08:14Z</time>
      </trkpt>
      <trkpt lat="43.95828" lon="7.27903">
        <ele>689.8833008</ele>
        <time>2012-08-19T07:08:21Z</time>
      </trkpt>
      <trkpt lat="43.95835" lon="7.27908">
        <ele>690.8444824</ele>
        <time>2012-08-19T07:08:25Z</time>
      </trkpt>
      <trkpt lat="43.9586" lon="7.27912">
        <ele>691.3251953</ele>
        <time>2012-08-19T07:08:35Z</time>
      </trkpt>
      <trkpt lat="43.9588" lon="7.27894">
        <ele>694.6896973</ele>
        <time>2012-08-19T07:08:47Z</time>
      </trkpt>
      <trkpt lat="43.95888" lon="7.27889">
        <ele>698.0544434</ele>
        <time>2012-08-19T07:08:55Z</time>
      </trkpt>
      <trkpt lat="43.95896" lon="7.27853">
        <ele>698.0544434</ele>
        <time>2012-08-19T07:09:10Z</time>
      </trkpt>
      <trkpt lat="43.95894" lon="7.27807">
        <ele>697.0930176</ele>
        <time>2012-08-19T07:09:24Z</time>
      </trkpt>
      <trkpt lat="43.95898" lon="7.27764">
        <ele>699.4963379</ele>
        <time>2012-08-19T07:09:37Z</time>
      </trkpt>
      <trkpt lat="43.95915" lon="7.27729">
        <ele>699.4963379</ele>
        <time>2012-08-19T07:09:50Z</time>
      </trkpt>
      <trkpt lat="43.95931" lon="7.27699">
        <ele>700.4580078</ele>
        <time>2012-08-19T07:10:02Z</time>
      </trkpt>
      <trkpt lat="43.95938" lon="7.27679">
        <ele>701.4191895</ele>
        <time>2012-08-19T07:10:15Z</time>
      </trkpt>
      <trkpt lat="43.95928" lon="7.27655">
        <ele>701.8999023</ele>
        <time>2012-08-19T07:10:23Z</time>
      </trkpt>
      <trkpt lat="43.95931" lon="7.27641">
        <ele>702.3803711</ele>
        <time>2012-08-19T07:10:27Z</time>
      </trkpt>
      <trkpt lat="43.95939" lon="7.27623">
        <ele>702.861084</ele>
        <time>2012-08-19T07:10:33Z</time>
      </trkpt>
      <trkpt lat="43.95949" lon="7.27604">
        <ele>704.7836914</ele>
        <time>2012-08-19T07:10:41Z</time>
      </trkpt>
      <trkpt lat="43.95952" lon="7.27592">
        <ele>704.3032227</ele>
        <time>2012-08-19T07:10:45Z</time>
      </trkpt>
      <trkpt lat="43.9595" lon="7.27543">
        <ele>704.7836914</ele>
        <time>2012-08-19T07:10:59Z</time>
      </trkpt>
      <trkpt lat="43.95941" lon="7.27499">
        <ele>704.3032227</ele>
        <time>2012-08-19T07:11:11Z</time>
      </trkpt>
      <trkpt lat="43.95927" lon="7.27451">
        <ele>703.3417969</ele>
        <time>2012-08-19T07:11:23Z</time>
      </trkpt>
      <trkpt lat="43.95927" lon="7.27448">
        <ele>703.8225098</ele>
        <time>2012-08-19T07:11:24Z</time>
      </trkpt>
      <trkpt lat="43.95928" lon="7.27438">
        <ele>703.3417969</ele>
        <time>2012-08-19T07:11:28Z</time>
      </trkpt>
      <trkpt lat="43.9594" lon="7.27382">
        <ele>701.8999023</ele>
        <time>2012-08-19T07:11:42Z</time>
      </trkpt>
      <trkpt lat="43.95949" lon="7.2737">
        <ele>705.2644043</ele>
        <time>2012-08-19T07:11:53Z</time>
      </trkpt>
      <trkpt lat="43.95952" lon="7.27368">
        <ele>706.2255859</ele>
        <time>2012-08-19T07:11:56Z</time>
      </trkpt>
      <trkpt lat="43.95974" lon="7.27364">
        <ele>705.7451172</ele>
        <time>2012-08-19T07:12:08Z</time>
      </trkpt>
      <trkpt lat="43.95972" lon="7.27357">
        <ele>706.2255859</ele>
        <time>2012-08-19T07:12:15Z</time>
      </trkpt>
      <trkpt lat="43.95972" lon="7.27354">
        <ele>705.2644043</ele>
        <time>2012-08-19T07:12:18Z</time>
      </trkpt>
      <trkpt lat="43.9597" lon="7.27345">
        <ele>705.7451172</ele>
        <time>2012-08-19T07:12:21Z</time>
      </trkpt>
      <trkpt lat="43.95966" lon="7.27339">
        <ele>704.7836914</ele>
        <time>2012-08-19T07:12:23Z</time>
      </trkpt>
      <trkpt lat="43.95953" lon="7.27324">
        <ele>703.8225098</ele>
        <time>2012-08-19T07:12:26Z</time>
      </trkpt>
      <trkpt lat="43.95938" lon="7.27312">
        <ele>703.8225098</ele>
        <time>2012-08-19T07:12:33Z</time>
      </trkpt>
      <trkpt lat="43.95921" lon="7.27277">
        <ele>704.3032227</ele>
        <time>2012-08-19T07:12:46Z</time>
      </trkpt>
      <trkpt lat="43.95921" lon="7.27271">
        <ele>704.7836914</ele>
        <time>2012-08-19T07:12:48Z</time>
      </trkpt>
      <trkpt lat="43.95927" lon="7.27236">
        <ele>704.3032227</ele>
        <time>2012-08-19T07:13:00Z</time>
      </trkpt>
      <trkpt lat="43.95942" lon="7.27197">
        <ele>705.7451172</ele>
        <time>2012-08-19T07:13:12Z</time>
      </trkpt>
      <trkpt lat="43.95943" lon="7.27195">
        <ele>705.7451172</ele>
        <time>2012-08-19T07:13:13Z</time>
      </trkpt>
      <trkpt lat="43.95945" lon="7.27191">
        <ele>706.2255859</ele>
        <time>2012-08-19T07:13:15Z</time>
      </trkpt>
      <trkpt lat="43.95966" lon="7.27158">
        <ele>705.7451172</ele>
        <time>2012-08-19T07:13:27Z</time>
      </trkpt>
      <trkpt lat="43.95986" lon="7.27135">
        <ele>705.2644043</ele>
        <time>2012-08-19T07:13:38Z</time>
      </trkpt>
      <trkpt lat="43.95996" lon="7.27121">
        <ele>705.2644043</ele>
        <time>2012-08-19T07:13:48Z</time>
      </trkpt>
      <trkpt lat="43.96019" lon="7.2708">
        <ele>706.2255859</ele>
        <time>2012-08-19T07:14:04Z</time>
      </trkpt>
      <trkpt lat="43.96028" lon="7.27058">
        <ele>707.1870117</ele>
        <time>2012-08-19T07:14:11Z</time>
      </trkpt>
      <trkpt lat="43.96037" lon="7.27049">
        <ele>708.1484375</ele>
        <time>2012-08-19T07:14:16Z</time>
      </trkpt>
      <trkpt lat="43.9604" lon="7.27047">
        <ele>708.1484375</ele>
        <time>2012-08-19T07:14:18Z</time>
      </trkpt>
      <trkpt lat="43.96046" lon="7.27041">
        <ele>707.1870117</ele>
        <time>2012-08-19T07:14:22Z</time>
      </trkpt>
      <trkpt lat="43.96077" lon="7.27027">
        <ele>706.7062988</ele>
        <time>2012-08-19T07:14:35Z</time>
      </trkpt>
      <trkpt lat="43.96101" lon="7.27026">
        <ele>708.1484375</ele>
        <time>2012-08-19T07:14:49Z</time>
      </trkpt>
      <trkpt lat="43.96104" lon="7.27024">
        <ele>708.6289063</ele>
        <time>2012-08-19T07:14:51Z</time>
      </trkpt>
      <trkpt lat="43.96107" lon="7.27022">
        <ele>708.1484375</ele>
        <time>2012-08-19T07:14:53Z</time>
      </trkpt>
      <trkpt lat="43.96113" lon="7.27024">
        <ele>709.590332</ele>
        <time>2012-08-19T07:14:55Z</time>
      </trkpt>
      <trkpt lat="43.96123" lon="7.27022">
        <ele>709.590332</ele>
        <time>2012-08-19T07:14:58Z</time>
      </trkpt>
      <trkpt lat="43.96127" lon="7.27018">
        <ele>710.5515137</ele>
        <time>2012-08-19T07:15:01Z</time>
      </trkpt>
      <trkpt lat="43.9614" lon="7.27025">
        <ele>711.0322266</ele>
        <time>2012-08-19T07:15:06Z</time>
      </trkpt>
      <trkpt lat="43.96147" lon="7.27028">
        <ele>711.0322266</ele>
        <time>2012-08-19T07:15:10Z</time>
      </trkpt>
      <trkpt lat="43.96173" lon="7.27003">
        <ele>710.0708008</ele>
        <time>2012-08-19T07:15:23Z</time>
      </trkpt>
      <trkpt lat="43.96192" lon="7.26977">
        <ele>710.5515137</ele>
        <time>2012-08-19T07:15:33Z</time>
      </trkpt>
      <trkpt lat="43.96221" lon="7.26958">
        <ele>711.5129395</ele>
        <time>2012-08-19T07:15:47Z</time>
      </trkpt>
      <trkpt lat="43.96245" lon="7.26931">
        <ele>711.9936523</ele>
        <time>2012-08-19T07:15:59Z</time>
      </trkpt>
      <trkpt lat="43.96269" lon="7.26904">
        <ele>711.0322266</ele>
        <time>2012-08-19T07:16:10Z</time>
      </trkpt>
      <trkpt lat="43.96287" lon="7.26877">
        <ele>710.5515137</ele>
        <time>2012-08-19T07:16:22Z</time>
      </trkpt>
      <trkpt lat="43.9631" lon="7.26842">
        <ele>711.9936523</ele>
        <time>2012-08-19T07:16:35Z</time>
      </trkpt>
      <trkpt lat="43.9632" lon="7.26832">
        <ele>712.954834</ele>
        <time>2012-08-19T07:16:41Z</time>
      </trkpt>
      <trkpt lat="43.96327" lon="7.26823">
        <ele>711.5129395</ele>
        <time>2012-08-19T07:16:47Z</time>
      </trkpt>
      <trkpt lat="43.96355" lon="7.26818">
        <ele>712.954834</ele>
        <time>2012-08-19T07:17:00Z</time>
      </trkpt>
      <trkpt lat="43.96387" lon="7.26802">
        <ele>714.8774414</ele>
        <time>2012-08-19T07:17:13Z</time>
      </trkpt>
      <trkpt lat="43.9641" lon="7.26795">
        <ele>716.800293</ele>
        <time>2012-08-19T07:17:24Z</time>
      </trkpt>
      <trkpt lat="43.96428" lon="7.26797">
        <ele>716.800293</ele>
        <time>2012-08-19T07:17:33Z</time>
      </trkpt>
      <trkpt lat="43.96438" lon="7.268">
        <ele>716.800293</ele>
        <time>2012-08-19T07:17:37Z</time>
      </trkpt>
      <trkpt lat="43.96467" lon="7.26803">
        <ele>718.7229004</ele>
        <time>2012-08-19T07:17:49Z</time>
      </trkpt>
      <trkpt lat="43.96486" lon="7.2682">
        <ele>720.1647949</ele>
        <time>2012-08-19T07:18:00Z</time>
      </trkpt>
      <trkpt lat="43.96488" lon="7.2683">
        <ele>721.1262207</ele>
        <time>2012-08-19T07:18:03Z</time>
      </trkpt>
      <trkpt lat="43.96501" lon="7.26842">
        <ele>721.6066895</ele>
        <time>2012-08-19T07:18:13Z</time>
      </trkpt>
      <trkpt lat="43.96528" lon="7.26844">
        <ele>724.4907227</ele>
        <time>2012-08-19T07:18:24Z</time>
      </trkpt>
      <trkpt lat="43.96552" lon="7.26842">
        <ele>726.4133301</ele>
        <time>2012-08-19T07:18:36Z</time>
      </trkpt>
      <trkpt lat="43.96554" lon="7.26842">
        <ele>726.894043</ele>
        <time>2012-08-19T07:18:37Z</time>
      </trkpt>
      <trkpt lat="43.96556" lon="7.26842">
        <ele>727.8552246</ele>
        <time>2012-08-19T07:18:38Z</time>
      </trkpt>
      <trkpt lat="43.96575" lon="7.26851">
        <ele>729.777832</ele>
        <time>2012-08-19T07:18:50Z</time>
      </trkpt>
      <trkpt lat="43.9658" lon="7.2685">
        <ele>729.777832</ele>
        <time>2012-08-19T07:18:52Z</time>
      </trkpt>
      <trkpt lat="43.96606" lon="7.26845">
        <ele>730.7392578</ele>
        <time>2012-08-19T07:19:03Z</time>
      </trkpt>
      <trkpt lat="43.96625" lon="7.26838">
        <ele>732.6621094</ele>
        <time>2012-08-19T07:19:11Z</time>
      </trkpt>
      <trkpt lat="43.96638" lon="7.26838">
        <ele>733.1425781</ele>
        <time>2012-08-19T07:19:18Z</time>
      </trkpt>
      <trkpt lat="43.96653" lon="7.2683">
        <ele>735.5458984</ele>
        <time>2012-08-19T07:19:25Z</time>
      </trkpt>
      <trkpt lat="43.96669" lon="7.26821">
        <ele>738.4299316</ele>
        <time>2012-08-19T07:19:35Z</time>
      </trkpt>
      <trkpt lat="43.96677" lon="7.26817">
        <ele>739.3911133</ele>
        <time>2012-08-19T07:19:40Z</time>
      </trkpt>
      <trkpt lat="43.96689" lon="7.26801">
        <ele>741.3137207</ele>
        <time>2012-08-19T07:19:48Z</time>
      </trkpt>
      <trkpt lat="43.96693" lon="7.26796">
        <ele>742.2751465</ele>
        <time>2012-08-19T07:19:52Z</time>
      </trkpt>
      <trkpt lat="43.96699" lon="7.26784">
        <ele>743.2363281</ele>
        <time>2012-08-19T07:19:58Z</time>
      </trkpt>
      <trkpt lat="43.96713" lon="7.26755">
        <ele>745.6396484</ele>
        <time>2012-08-19T07:20:12Z</time>
      </trkpt>
      <trkpt lat="43.96717" lon="7.26754">
        <ele>747.5622559</ele>
        <time>2012-08-19T07:20:16Z</time>
      </trkpt>
      <trkpt lat="43.96738" lon="7.2675">
        <ele>750.927002</ele>
        <time>2012-08-19T07:20:33Z</time>
      </trkpt>
      <trkpt lat="43.96739" lon="7.26748">
        <ele>751.4077148</ele>
        <time>2012-08-19T07:20:34Z</time>
      </trkpt>
      <trkpt lat="43.9676" lon="7.26709">
        <ele>753.3303223</ele>
        <time>2012-08-19T07:20:54Z</time>
      </trkpt>
      <trkpt lat="43.96762" lon="7.26704">
        <ele>753.8110352</ele>
        <time>2012-08-19T07:20:56Z</time>
      </trkpt>
      <trkpt lat="43.96772" lon="7.26705">
        <ele>754.7722168</ele>
        <time>2012-08-19T07:21:01Z</time>
      </trkpt>
      <trkpt lat="43.96778" lon="7.26703">
        <ele>756.2141113</ele>
        <time>2012-08-19T07:21:07Z</time>
      </trkpt>
      <trkpt lat="43.96795" lon="7.26707">
        <ele>757.65625</ele>
        <time>2012-08-19T07:21:20Z</time>
      </trkpt>
      <trkpt lat="43.96796" lon="7.26705">
        <ele>759.0981445</ele>
        <time>2012-08-19T07:21:23Z</time>
      </trkpt>
      <trkpt lat="43.96802" lon="7.26707">
        <ele>760.0593262</ele>
        <time>2012-08-19T07:21:28Z</time>
      </trkpt>
      <trkpt lat="43.96807" lon="7.26703">
        <ele>761.020752</ele>
        <time>2012-08-19T07:21:31Z</time>
      </trkpt>
      <trkpt lat="43.96812" lon="7.26705">
        <ele>761.020752</ele>
        <time>2012-08-19T07:21:33Z</time>
      </trkpt>
      <trkpt lat="43.96817" lon="7.26703">
        <ele>761.020752</ele>
        <time>2012-08-19T07:21:36Z</time>
      </trkpt>
      <trkpt lat="43.96828" lon="7.26701">
        <ele>763.4240723</ele>
        <time>2012-08-19T07:21:47Z</time>
      </trkpt>
      <trkpt lat="43.96835" lon="7.26702">
        <ele>764.385498</ele>
        <time>2012-08-19T07:21:54Z</time>
      </trkpt>
      <trkpt lat="43.96844" lon="7.26702">
        <ele>766.3081055</ele>
        <time>2012-08-19T07:21:58Z</time>
      </trkpt>
      <trkpt lat="43.96871" lon="7.26691">
        <ele>768.2307129</ele>
        <time>2012-08-19T07:22:13Z</time>
      </trkpt>
      <trkpt lat="43.96872" lon="7.26691">
        <ele>768.2307129</ele>
        <time>2012-08-19T07:22:14Z</time>
      </trkpt>
      <trkpt lat="43.96876" lon="7.26698">
        <ele>769.1921387</ele>
        <time>2012-08-19T07:22:18Z</time>
      </trkpt>
      <trkpt lat="43.96884" lon="7.26729">
        <ele>771.5952148</ele>
        <time>2012-08-19T07:22:31Z</time>
      </trkpt>
      <trkpt lat="43.96901" lon="7.26755">
        <ele>772.5566406</ele>
        <time>2012-08-19T07:22:43Z</time>
      </trkpt>
      <trkpt lat="43.96905" lon="7.26759">
        <ele>773.0373535</ele>
        <time>2012-08-19T07:22:45Z</time>
      </trkpt>
      <trkpt lat="43.96913" lon="7.2677">
        <ele>773.9985352</ele>
        <time>2012-08-19T07:22:57Z</time>
      </trkpt>
      <trkpt lat="43.96911" lon="7.26771">
        <ele>774.9599609</ele>
        <time>2012-08-19T07:23:00Z</time>
      </trkpt>
      <trkpt lat="43.96907" lon="7.26772">
        <ele>776.4018555</ele>
        <time>2012-08-19T07:23:12Z</time>
      </trkpt>
      <trkpt lat="43.9691" lon="7.26771">
        <ele>775.9211426</ele>
        <time>2012-08-19T07:23:14Z</time>
      </trkpt>
      <trkpt lat="43.96923" lon="7.26775">
        <ele>776.8825684</ele>
        <time>2012-08-19T07:23:17Z</time>
      </trkpt>
      <trkpt lat="43.96939" lon="7.2677">
        <ele>776.4018555</ele>
        <time>2012-08-19T07:23:24Z</time>
      </trkpt>
      <trkpt lat="43.96945" lon="7.26773">
        <ele>777.3632813</ele>
        <time>2012-08-19T07:23:27Z</time>
      </trkpt>
      <trkpt lat="43.96961" lon="7.26783">
        <ele>778.3244629</ele>
        <time>2012-08-19T07:23:33Z</time>
      </trkpt>
      <trkpt lat="43.96965" lon="7.26778">
        <ele>777.84375</ele>
        <time>2012-08-19T07:23:35Z</time>
      </trkpt>
      <trkpt lat="43.96975" lon="7.26775">
        <ele>778.8051758</ele>
        <time>2012-08-19T07:23:40Z</time>
      </trkpt>
      <trkpt lat="43.97008" lon="7.26802">
        <ele>779.2856445</ele>
        <time>2012-08-19T07:23:49Z</time>
      </trkpt>
      <trkpt lat="43.97015" lon="7.26803">
        <ele>780.2473145</ele>
        <time>2012-08-19T07:23:53Z</time>
      </trkpt>
      <trkpt lat="43.97045" lon="7.26813">
        <ele>781.689209</ele>
        <time>2012-08-19T07:24:08Z</time>
      </trkpt>
      <trkpt lat="43.97075" lon="7.26836">
        <ele>781.2087402</ele>
        <time>2012-08-19T07:24:20Z</time>
      </trkpt>
      <trkpt lat="43.97109" lon="7.2684">
        <ele>782.6506348</ele>
        <time>2012-08-19T07:24:33Z</time>
      </trkpt>
      <trkpt lat="43.97134" lon="7.26846">
        <ele>783.6118164</ele>
        <time>2012-08-19T07:24:45Z</time>
      </trkpt>
      <trkpt lat="43.97136" lon="7.26847">
        <ele>784.0925293</ele>
        <time>2012-08-19T07:24:47Z</time>
      </trkpt>
      <trkpt lat="43.97146" lon="7.26846">
        <ele>784.0925293</ele>
        <time>2012-08-19T07:24:51Z</time>
      </trkpt>
      <trkpt lat="43.97158" lon="7.2686">
        <ele>784.5732422</ele>
        <time>2012-08-19T07:24:55Z</time>
      </trkpt>
      <trkpt lat="43.97162" lon="7.26868">
        <ele>784.5732422</ele>
        <time>2012-08-19T07:24:59Z</time>
      </trkpt>
      <trkpt lat="43.97163" lon="7.26874">
        <ele>785.5344238</ele>
        <time>2012-08-19T07:25:03Z</time>
      </trkpt>
      <trkpt lat="43.97169" lon="7.26878">
        <ele>785.0539551</ele>
        <time>2012-08-19T07:25:07Z</time>
      </trkpt>
      <trkpt lat="43.97173" lon="7.26878">
        <ele>785.5344238</ele>
        <time>2012-08-19T07:25:10Z</time>
      </trkpt>
      <trkpt lat="43.9718" lon="7.26877">
        <ele>785.5344238</ele>
        <time>2012-08-19T07:25:12Z</time>
      </trkpt>
      <trkpt lat="43.97192" lon="7.26888">
        <ele>785.5344238</ele>
        <time>2012-08-19T07:25:17Z</time>
      </trkpt>
      <trkpt lat="43.97195" lon="7.26895">
        <ele>786.4958496</ele>
        <time>2012-08-19T07:25:20Z</time>
      </trkpt>
      <trkpt lat="43.97202" lon="7.26906">
        <ele>786.4958496</ele>
        <time>2012-08-19T07:25:25Z</time>
      </trkpt>
      <trkpt lat="43.97208" lon="7.26919">
        <ele>788.418457</ele>
        <time>2012-08-19T07:25:31Z</time>
      </trkpt>
      <trkpt lat="43.97218" lon="7.26934">
        <ele>789.3796387</ele>
        <time>2012-08-19T07:25:39Z</time>
      </trkpt>
      <trkpt lat="43.97224" lon="7.2695">
        <ele>790.8215332</ele>
        <time>2012-08-19T07:25:44Z</time>
      </trkpt>
      <trkpt lat="43.97232" lon="7.26962">
        <ele>791.782959</ele>
        <time>2012-08-19T07:25:50Z</time>
      </trkpt>
      <trkpt lat="43.97243" lon="7.26972">
        <ele>791.3022461</ele>
        <time>2012-08-19T07:25:57Z</time>
      </trkpt>
      <trkpt lat="43.97249" lon="7.26966">
        <ele>792.2636719</ele>
        <time>2012-08-19T07:26:01Z</time>
      </trkpt>
      <trkpt lat="43.97264" lon="7.26934">
        <ele>792.2636719</ele>
        <time>2012-08-19T07:26:13Z</time>
      </trkpt>
      <trkpt lat="43.97281" lon="7.26904">
        <ele>794.1862793</ele>
        <time>2012-08-19T07:26:26Z</time>
      </trkpt>
      <trkpt lat="43.97296" lon="7.2689">
        <ele>796.1091309</ele>
        <time>2012-08-19T07:26:37Z</time>
      </trkpt>
      <trkpt lat="43.9731" lon="7.26898">
        <ele>797.5510254</ele>
        <time>2012-08-19T07:26:47Z</time>
      </trkpt>
      <trkpt lat="43.97335" lon="7.26922">
        <ele>799.9543457</ele>
        <time>2012-08-19T07:27:02Z</time>
      </trkpt>
      <trkpt lat="43.97358" lon="7.26927">
        <ele>800.9155273</ele>
        <time>2012-08-19T07:27:15Z</time>
      </trkpt>
      <trkpt lat="43.97391" lon="7.26923">
        <ele>802.3574219</ele>
        <time>2012-08-19T07:27:30Z</time>
      </trkpt>
      <trkpt lat="43.97405" lon="7.26912">
        <ele>801.8769531</ele>
        <time>2012-08-19T07:27:36Z</time>
      </trkpt>
      <trkpt lat="43.97404" lon="7.26896">
        <ele>803.7995605</ele>
        <time>2012-08-19T07:27:42Z</time>
      </trkpt>
      <trkpt lat="43.97385" lon="7.26869">
        <ele>805.722168</ele>
        <time>2012-08-19T07:27:56Z</time>
      </trkpt>
      <trkpt lat="43.97389" lon="7.26836">
        <ele>808.1254883</ele>
        <time>2012-08-19T07:28:09Z</time>
      </trkpt>
      <trkpt lat="43.97388" lon="7.26825">
        <ele>808.1254883</ele>
        <time>2012-08-19T07:28:13Z</time>
      </trkpt>
      <trkpt lat="43.97382" lon="7.26784">
        <ele>810.5285645</ele>
        <time>2012-08-19T07:28:28Z</time>
      </trkpt>
      <trkpt lat="43.97382" lon="7.26763">
        <ele>813.4128418</ele>
        <time>2012-08-19T07:28:37Z</time>
      </trkpt>
      <trkpt lat="43.9738" lon="7.26758">
        <ele>813.4128418</ele>
        <time>2012-08-19T07:28:40Z</time>
      </trkpt>
      <trkpt lat="43.97363" lon="7.26753">
        <ele>815.8161621</ele>
        <time>2012-08-19T07:28:48Z</time>
      </trkpt>
      <trkpt lat="43.97341" lon="7.26733">
        <ele>818.2192383</ele>
        <time>2012-08-19T07:29:04Z</time>
      </trkpt>
      <trkpt lat="43.97341" lon="7.26732">
        <ele>818.6999512</ele>
        <time>2012-08-19T07:29:05Z</time>
      </trkpt>
      <trkpt lat="43.97342" lon="7.26731">
        <ele>818.6999512</ele>
        <time>2012-08-19T07:29:06Z</time>
      </trkpt>
      <trkpt lat="43.97339" lon="7.26718">
        <ele>819.661377</ele>
        <time>2012-08-19T07:29:14Z</time>
      </trkpt>
      <trkpt lat="43.97328" lon="7.26702">
        <ele>823.5065918</ele>
        <time>2012-08-19T07:29:27Z</time>
      </trkpt>
      <trkpt lat="43.97308" lon="7.26688">
        <ele>826.3903809</ele>
        <time>2012-08-19T07:29:45Z</time>
      </trkpt>
      <trkpt lat="43.97306" lon="7.26669">
        <ele>828.3132324</ele>
        <time>2012-08-19T07:29:57Z</time>
      </trkpt>
      <trkpt lat="43.97307" lon="7.26657">
        <ele>829.755127</ele>
        <time>2012-08-19T07:30:04Z</time>
      </trkpt>
      <trkpt lat="43.97309" lon="7.26652">
        <ele>830.7165527</ele>
        <time>2012-08-19T07:30:09Z</time>
      </trkpt>
      <trkpt lat="43.97298" lon="7.2663">
        <ele>834.5617676</ele>
        <time>2012-08-19T07:30:24Z</time>
      </trkpt>
      <trkpt lat="43.97281" lon="7.26612">
        <ele>836.9648438</ele>
        <time>2012-08-19T07:30:40Z</time>
      </trkpt>
      <trkpt lat="43.97277" lon="7.26607">
        <ele>837.4455566</ele>
        <time>2012-08-19T07:30:43Z</time>
      </trkpt>
      <trkpt lat="43.97271" lon="7.26604">
        <ele>838.8876953</ele>
        <time>2012-08-19T07:30:48Z</time>
      </trkpt>
      <trkpt lat="43.97267" lon="7.26603">
        <ele>838.4069824</ele>
        <time>2012-08-19T07:30:50Z</time>
      </trkpt>
      <trkpt lat="43.97269" lon="7.26594">
        <ele>840.3295898</ele>
        <time>2012-08-19T07:30:59Z</time>
      </trkpt>
      <trkpt lat="43.97277" lon="7.26574">
        <ele>844.1750488</ele>
        <time>2012-08-19T07:31:13Z</time>
      </trkpt>
      <trkpt lat="43.97278" lon="7.26565">
        <ele>844.6555176</ele>
        <time>2012-08-19T07:31:18Z</time>
      </trkpt>
      <trkpt lat="43.97282" lon="7.26548">
        <ele>847.5395508</ele>
        <time>2012-08-19T07:31:29Z</time>
      </trkpt>
      <trkpt lat="43.97291" lon="7.26528">
        <ele>850.9040527</ele>
        <time>2012-08-19T07:31:45Z</time>
      </trkpt>
      <trkpt lat="43.97293" lon="7.26524">
        <ele>851.3847656</ele>
        <time>2012-08-19T07:31:48Z</time>
      </trkpt>
      <trkpt lat="43.97285" lon="7.26495">
        <ele>854.7492676</ele>
        <time>2012-08-19T07:32:04Z</time>
      </trkpt>
      <trkpt lat="43.97274" lon="7.26471">
        <ele>856.671875</ele>
        <time>2012-08-19T07:32:18Z</time>
      </trkpt>
      <trkpt lat="43.97268" lon="7.26457">
        <ele>858.1140137</ele>
        <time>2012-08-19T07:32:27Z</time>
      </trkpt>
      <trkpt lat="43.97264" lon="7.2644">
        <ele>860.517334</ele>
        <time>2012-08-19T07:32:38Z</time>
      </trkpt>
      <trkpt lat="43.97266" lon="7.26436">
        <ele>860.517334</ele>
        <time>2012-08-19T07:32:41Z</time>
      </trkpt>
      <trkpt lat="43.97277" lon="7.26443">
        <ele>861.4787598</ele>
        <time>2012-08-19T07:32:47Z</time>
      </trkpt>
      <trkpt lat="43.97286" lon="7.26453">
        <ele>861.4787598</ele>
        <time>2012-08-19T07:32:52Z</time>
      </trkpt>
      <trkpt lat="43.97312" lon="7.26432">
        <ele>861.9594727</ele>
        <time>2012-08-19T07:33:05Z</time>
      </trkpt>
      <trkpt lat="43.97322" lon="7.26393">
        <ele>863.4013672</ele>
        <time>2012-08-19T07:33:18Z</time>
      </trkpt>
      <trkpt lat="43.97327" lon="7.26348">
        <ele>863.4013672</ele>
        <time>2012-08-19T07:33:32Z</time>
      </trkpt>
      <trkpt lat="43.97342" lon="7.26319">
        <ele>865.3239746</ele>
        <time>2012-08-19T07:33:45Z</time>
      </trkpt>
      <trkpt lat="43.97349" lon="7.26323">
        <ele>866.7658691</ele>
        <time>2012-08-19T07:33:49Z</time>
      </trkpt>
      <trkpt lat="43.97368" lon="7.26335">
        <ele>867.246582</ele>
        <time>2012-08-19T07:34:00Z</time>
      </trkpt>
      <trkpt lat="43.9739" lon="7.26359">
        <ele>869.1691895</ele>
        <time>2012-08-19T07:34:13Z</time>
      </trkpt>
      <trkpt lat="43.97409" lon="7.26371">
        <ele>870.1303711</ele>
        <time>2012-08-19T07:34:24Z</time>
      </trkpt>
      <trkpt lat="43.97431" lon="7.26358">
        <ele>871.0917969</ele>
        <time>2012-08-19T07:34:35Z</time>
      </trkpt>
      <trkpt lat="43.97457" lon="7.26373">
        <ele>870.611084</ele>
        <time>2012-08-19T07:34:47Z</time>
      </trkpt>
      <trkpt lat="43.97481" lon="7.26379">
        <ele>870.1303711</ele>
        <time>2012-08-19T07:34:58Z</time>
      </trkpt>
      <trkpt lat="43.975" lon="7.26409">
        <ele>870.611084</ele>
        <time>2012-08-19T07:35:10Z</time>
      </trkpt>
      <trkpt lat="43.97507" lon="7.2643">
        <ele>872.0529785</ele>
        <time>2012-08-19T07:35:20Z</time>
      </trkpt>
      <trkpt lat="43.97512" lon="7.26434">
        <ele>872.5336914</ele>
        <time>2012-08-19T07:35:25Z</time>
      </trkpt>
      <trkpt lat="43.97542" lon="7.26441">
        <ele>872.5336914</ele>
        <time>2012-08-19T07:35:39Z</time>
      </trkpt>
      <trkpt lat="43.9756" lon="7.26459">
        <ele>872.0529785</ele>
        <time>2012-08-19T07:35:47Z</time>
      </trkpt>
      <trkpt lat="43.97582" lon="7.26465">
        <ele>873.0144043</ele>
        <time>2012-08-19T07:35:57Z</time>
      </trkpt>
      <trkpt lat="43.97597" lon="7.26465">
        <ele>872.5336914</ele>
        <time>2012-08-19T07:36:04Z</time>
      </trkpt>
      <trkpt lat="43.9762" lon="7.26508">
        <ele>873.9755859</ele>
        <time>2012-08-19T07:36:17Z</time>
      </trkpt>
      <trkpt lat="43.97625" lon="7.26514">
        <ele>873.9755859</ele>
        <time>2012-08-19T07:36:20Z</time>
      </trkpt>
      <trkpt lat="43.97627" lon="7.26526">
        <ele>874.9370117</ele>
        <time>2012-08-19T07:36:24Z</time>
      </trkpt>
      <trkpt lat="43.97635" lon="7.26553">
        <ele>874.9370117</ele>
        <time>2012-08-19T07:36:33Z</time>
      </trkpt>
      <trkpt lat="43.97636" lon="7.26581">
        <ele>875.4174805</ele>
        <time>2012-08-19T07:36:43Z</time>
      </trkpt>
      <trkpt lat="43.97634" lon="7.26585">
        <ele>875.4174805</ele>
        <time>2012-08-19T07:36:45Z</time>
      </trkpt>
      <trkpt lat="43.97635" lon="7.26598">
        <ele>875.4174805</ele>
        <time>2012-08-19T07:36:50Z</time>
      </trkpt>
      <trkpt lat="43.97629" lon="7.26609">
        <ele>875.8981934</ele>
        <time>2012-08-19T07:36:56Z</time>
      </trkpt>
      <trkpt lat="43.97625" lon="7.26611">
        <ele>876.3791504</ele>
        <time>2012-08-19T07:37:01Z</time>
      </trkpt>
      <trkpt lat="43.97625" lon="7.26607">
        <ele>875.8981934</ele>
        <time>2012-08-19T07:37:04Z</time>
      </trkpt>
      <trkpt lat="43.97631" lon="7.26599">
        <ele>875.8981934</ele>
        <time>2012-08-19T07:37:09Z</time>
      </trkpt>
      <trkpt lat="43.97697" lon="7.266">
        <ele>875.8981934</ele>
        <time>2012-08-19T07:37:23Z</time>
      </trkpt>
      <trkpt lat="43.97721" lon="7.2661">
        <ele>875.8981934</ele>
        <time>2012-08-19T07:37:34Z</time>
      </trkpt>
      <trkpt lat="43.97737" lon="7.2664">
        <ele>875.8981934</ele>
        <time>2012-08-19T07:37:45Z</time>
      </trkpt>
      <trkpt lat="43.97759" lon="7.26653">
        <ele>876.3791504</ele>
        <time>2012-08-19T07:37:57Z</time>
      </trkpt>
      <trkpt lat="43.97782" lon="7.26676">
        <ele>876.8598633</ele>
        <time>2012-08-19T07:38:09Z</time>
      </trkpt>
      <trkpt lat="43.97785" lon="7.26681">
        <ele>876.3791504</ele>
        <time>2012-08-19T07:38:12Z</time>
      </trkpt>
      <trkpt lat="43.97799" lon="7.26686">
        <ele>876.8598633</ele>
        <time>2012-08-19T07:38:18Z</time>
      </trkpt>
      <trkpt lat="43.97822" lon="7.2667">
        <ele>877.3405762</ele>
        <time>2012-08-19T07:38:30Z</time>
      </trkpt>
      <trkpt lat="43.97843" lon="7.26671">
        <ele>877.3405762</ele>
        <time>2012-08-19T07:38:40Z</time>
      </trkpt>
      <trkpt lat="43.97863" lon="7.26679">
        <ele>876.8598633</ele>
        <time>2012-08-19T07:38:47Z</time>
      </trkpt>
      <trkpt lat="43.97874" lon="7.26673">
        <ele>877.8210449</ele>
        <time>2012-08-19T07:38:51Z</time>
      </trkpt>
      <trkpt lat="43.97891" lon="7.26666">
        <ele>877.8210449</ele>
        <time>2012-08-19T07:38:59Z</time>
      </trkpt>
      <trkpt lat="43.9789" lon="7.26652">
        <ele>877.8210449</ele>
        <time>2012-08-19T07:39:03Z</time>
      </trkpt>
      <trkpt lat="43.97869" lon="7.26618">
        <ele>878.3017578</ele>
        <time>2012-08-19T07:39:17Z</time>
      </trkpt>
      <trkpt lat="43.97862" lon="7.26607">
        <ele>879.7436523</ele>
        <time>2012-08-19T07:39:22Z</time>
      </trkpt>
      <trkpt lat="43.9784" lon="7.26579">
        <ele>881.6662598</ele>
        <time>2012-08-19T07:39:36Z</time>
      </trkpt>
      <trkpt lat="43.97825" lon="7.26549">
        <ele>882.6276855</ele>
        <time>2012-08-19T07:39:48Z</time>
      </trkpt>
      <trkpt lat="43.97817" lon="7.26512">
        <ele>884.0695801</ele>
        <time>2012-08-19T07:40:01Z</time>
      </trkpt>
      <trkpt lat="43.97814" lon="7.26473">
        <ele>885.5114746</ele>
        <time>2012-08-19T07:40:15Z</time>
      </trkpt>
      <trkpt lat="43.9781" lon="7.2645">
        <ele>885.9921875</ele>
        <time>2012-08-19T07:40:23Z</time>
      </trkpt>
      <trkpt lat="43.97802" lon="7.26408">
        <ele>886.9533691</ele>
        <time>2012-08-19T07:40:38Z</time>
      </trkpt>
      <trkpt lat="43.97795" lon="7.26367">
        <ele>888.3955078</ele>
        <time>2012-08-19T07:40:52Z</time>
      </trkpt>
      <trkpt lat="43.97785" lon="7.26335">
        <ele>889.3566895</ele>
        <time>2012-08-19T07:41:04Z</time>
      </trkpt>
      <trkpt lat="43.97786" lon="7.26327">
        <ele>890.3181152</ele>
        <time>2012-08-19T07:41:07Z</time>
      </trkpt>
      <trkpt lat="43.97811" lon="7.2631">
        <ele>893.2021484</ele>
        <time>2012-08-19T07:41:20Z</time>
      </trkpt>
      <trkpt lat="43.97835" lon="7.26294">
        <ele>896.0861816</ele>
        <time>2012-08-19T07:41:34Z</time>
      </trkpt>
      <trkpt lat="43.9784" lon="7.26298">
        <ele>896.0861816</ele>
        <time>2012-08-19T07:41:37Z</time>
      </trkpt>
      <trkpt lat="43.97861" lon="7.26304">
        <ele>898.4892578</ele>
        <time>2012-08-19T07:41:51Z</time>
      </trkpt>
      <trkpt lat="43.97875" lon="7.26292">
        <ele>899.4506836</ele>
        <time>2012-08-19T07:41:58Z</time>
      </trkpt>
      <trkpt lat="43.97883" lon="7.26283">
        <ele>900.8925781</ele>
        <time>2012-08-19T07:42:04Z</time>
      </trkpt>
      <trkpt lat="43.97888" lon="7.26273">
        <ele>901.8540039</ele>
        <time>2012-08-19T07:42:10Z</time>
      </trkpt>
      <trkpt lat="43.97896" lon="7.26241">
        <ele>903.7766113</ele>
        <time>2012-08-19T07:42:26Z</time>
      </trkpt>
      <trkpt lat="43.97903" lon="7.26218">
        <ele>905.6992188</ele>
        <time>2012-08-19T07:42:40Z</time>
      </trkpt>
      <trkpt lat="43.97919" lon="7.26208">
        <ele>907.1411133</ele>
        <time>2012-08-19T07:42:55Z</time>
      </trkpt>
      <trkpt lat="43.97937" lon="7.26208">
        <ele>910.0251465</ele>
        <time>2012-08-19T07:43:10Z</time>
      </trkpt>
      <trkpt lat="43.97952" lon="7.26191">
        <ele>911.4672852</ele>
        <time>2012-08-19T07:43:23Z</time>
      </trkpt>
      <trkpt lat="43.97972" lon="7.2619">
        <ele>913.3898926</ele>
        <time>2012-08-19T07:43:35Z</time>
      </trkpt>
      <trkpt lat="43.97975" lon="7.2619">
        <ele>914.3510742</ele>
        <time>2012-08-19T07:43:37Z</time>
      </trkpt>
      <trkpt lat="43.97992" lon="7.2619">
        <ele>915.7932129</ele>
        <time>2012-08-19T07:43:51Z</time>
      </trkpt>
      <trkpt lat="43.97998" lon="7.2619">
        <ele>917.2351074</ele>
        <time>2012-08-19T07:43:56Z</time>
      </trkpt>
      <trkpt lat="43.98012" lon="7.26192">
        <ele>918.1962891</ele>
        <time>2012-08-19T07:44:07Z</time>
      </trkpt>
      <trkpt lat="43.98023" lon="7.26219">
        <ele>920.1188965</ele>
        <time>2012-08-19T07:44:19Z</time>
      </trkpt>
      <trkpt lat="43.98028" lon="7.26234">
        <ele>920.1188965</ele>
        <time>2012-08-19T07:44:31Z</time>
      </trkpt>
      <trkpt lat="43.98031" lon="7.26237">
        <ele>920.5996094</ele>
        <time>2012-08-19T07:44:35Z</time>
      </trkpt>
      <trkpt lat="43.98035" lon="7.26233">
        <ele>920.1188965</ele>
        <time>2012-08-19T07:44:37Z</time>
      </trkpt>
      <trkpt lat="43.98058" lon="7.26243">
        <ele>921.560791</ele>
        <time>2012-08-19T07:44:50Z</time>
      </trkpt>
      <trkpt lat="43.98082" lon="7.26272">
        <ele>922.5222168</ele>
        <time>2012-08-19T07:45:02Z</time>
      </trkpt>
      <trkpt lat="43.98086" lon="7.26279">
        <ele>922.5222168</ele>
        <time>2012-08-19T07:45:06Z</time>
      </trkpt>
      <trkpt lat="43.98119" lon="7.26271">
        <ele>923.0029297</ele>
        <time>2012-08-19T07:45:20Z</time>
      </trkpt>
      <trkpt lat="43.9814" lon="7.26264">
        <ele>923.4836426</ele>
        <time>2012-08-19T07:45:32Z</time>
      </trkpt>
      <trkpt lat="43.9815" lon="7.26263">
        <ele>924.4450684</ele>
        <time>2012-08-19T07:45:38Z</time>
      </trkpt>
      <trkpt lat="43.98163" lon="7.26276">
        <ele>925.40625</ele>
        <time>2012-08-19T07:45:46Z</time>
      </trkpt>
      <trkpt lat="43.98167" lon="7.2628">
        <ele>924.9257813</ele>
        <time>2012-08-19T07:45:48Z</time>
      </trkpt>
      <trkpt lat="43.9818" lon="7.26296">
        <ele>926.3676758</ele>
        <time>2012-08-19T07:45:56Z</time>
      </trkpt>
      <trkpt lat="43.98183" lon="7.26299">
        <ele>925.8869629</ele>
        <time>2012-08-19T07:45:58Z</time>
      </trkpt>
      <trkpt lat="43.98193" lon="7.26299">
        <ele>925.8869629</ele>
        <time>2012-08-19T07:46:04Z</time>
      </trkpt>
      <trkpt lat="43.98208" lon="7.26291">
        <ele>925.8869629</ele>
        <time>2012-08-19T07:46:11Z</time>
      </trkpt>
      <trkpt lat="43.98215" lon="7.26286">
        <ele>926.8483887</ele>
        <time>2012-08-19T07:46:15Z</time>
      </trkpt>
      <trkpt lat="43.98243" lon="7.26268">
        <ele>927.3291016</ele>
        <time>2012-08-19T07:46:27Z</time>
      </trkpt>
      <trkpt lat="43.98268" lon="7.26285">
        <ele>928.2902832</ele>
        <time>2012-08-19T07:46:40Z</time>
      </trkpt>
      <trkpt lat="43.98278" lon="7.26286">
        <ele>929.2514648</ele>
        <time>2012-08-19T07:46:45Z</time>
      </trkpt>
      <trkpt lat="43.98282" lon="7.26287">
        <ele>929.2514648</ele>
        <time>2012-08-19T07:46:47Z</time>
      </trkpt>
      <trkpt lat="43.98307" lon="7.26306">
        <ele>931.1743164</ele>
        <time>2012-08-19T07:47:01Z</time>
      </trkpt>
      <trkpt lat="43.98332" lon="7.26329">
        <ele>932.135498</ele>
        <time>2012-08-19T07:47:13Z</time>
      </trkpt>
      <trkpt lat="43.98351" lon="7.26319">
        <ele>933.0966797</ele>
        <time>2012-08-19T07:47:23Z</time>
      </trkpt>
      <trkpt lat="43.98371" lon="7.26338">
        <ele>934.0581055</ele>
        <time>2012-08-19T07:47:37Z</time>
      </trkpt>
      <trkpt lat="43.98376" lon="7.26338">
        <ele>934.0581055</ele>
        <time>2012-08-19T07:47:39Z</time>
      </trkpt>
      <trkpt lat="43.98383" lon="7.26331">
        <ele>934.0581055</ele>
        <time>2012-08-19T07:47:43Z</time>
      </trkpt>
      <trkpt lat="43.98418" lon="7.26308">
        <ele>934.0581055</ele>
        <time>2012-08-19T07:47:57Z</time>
      </trkpt>
      <trkpt lat="43.98441" lon="7.26284">
        <ele>935.5</ele>
        <time>2012-08-19T07:48:10Z</time>
      </trkpt>
      <trkpt lat="43.98459" lon="7.26297">
        <ele>936.9418945</ele>
        <time>2012-08-19T07:48:22Z</time>
      </trkpt>
      <trkpt lat="43.98479" lon="7.26298">
        <ele>938.3840332</ele>
        <time>2012-08-19T07:48:35Z</time>
      </trkpt>
      <trkpt lat="43.98493" lon="7.26264">
        <ele>939.8259277</ele>
        <time>2012-08-19T07:48:48Z</time>
      </trkpt>
      <trkpt lat="43.98492" lon="7.26263">
        <ele>939.8259277</ele>
        <time>2012-08-19T07:48:49Z</time>
      </trkpt>
      <trkpt lat="43.98504" lon="7.26254">
        <ele>940.7873535</ele>
        <time>2012-08-19T07:48:56Z</time>
      </trkpt>
      <trkpt lat="43.98519" lon="7.26275">
        <ele>942.2294922</ele>
        <time>2012-08-19T07:49:09Z</time>
      </trkpt>
      <trkpt lat="43.98539" lon="7.26292">
        <ele>944.6325684</ele>
        <time>2012-08-19T07:49:23Z</time>
      </trkpt>
      <trkpt lat="43.98566" lon="7.26297">
        <ele>946.5554199</ele>
        <time>2012-08-19T07:49:36Z</time>
      </trkpt>
      <trkpt lat="43.98568" lon="7.26298">
        <ele>945.5939941</ele>
        <time>2012-08-19T07:49:37Z</time>
      </trkpt>
      <trkpt lat="43.98582" lon="7.26316">
        <ele>947.5166016</ele>
        <time>2012-08-19T07:49:50Z</time>
      </trkpt>
      <trkpt lat="43.98601" lon="7.26318">
        <ele>948.9584961</ele>
        <time>2012-08-19T07:50:03Z</time>
      </trkpt>
      <trkpt lat="43.98612" lon="7.26315">
        <ele>948.9584961</ele>
        <time>2012-08-19T07:50:11Z</time>
      </trkpt>
      <trkpt lat="43.98614" lon="7.26309">
        <ele>948.4777832</ele>
        <time>2012-08-19T07:50:15Z</time>
      </trkpt>
      <trkpt lat="43.98608" lon="7.26277">
        <ele>949.9199219</ele>
        <time>2012-08-19T07:50:24Z</time>
      </trkpt>
      <trkpt lat="43.98589" lon="7.26244">
        <ele>949.439209</ele>
        <time>2012-08-19T07:50:37Z</time>
      </trkpt>
      <trkpt lat="43.98592" lon="7.26232">
        <ele>949.9199219</ele>
        <time>2012-08-19T07:50:41Z</time>
      </trkpt>
      <trkpt lat="43.98595" lon="7.26194">
        <ele>952.8037109</ele>
        <time>2012-08-19T07:50:55Z</time>
      </trkpt>
      <trkpt lat="43.98589" lon="7.26159">
        <ele>954.7263184</ele>
        <time>2012-08-19T07:51:07Z</time>
      </trkpt>
      <trkpt lat="43.98579" lon="7.26141">
        <ele>954.7263184</ele>
        <time>2012-08-19T07:51:14Z</time>
      </trkpt>
      <trkpt lat="43.98585" lon="7.26133">
        <ele>955.6877441</ele>
        <time>2012-08-19T07:51:18Z</time>
      </trkpt>
      <trkpt lat="43.98615" lon="7.26117">
        <ele>955.6877441</ele>
        <time>2012-08-19T07:51:32Z</time>
      </trkpt>
      <trkpt lat="43.98619" lon="7.26113">
        <ele>956.168457</ele>
        <time>2012-08-19T07:51:33Z</time>
      </trkpt>
      <trkpt lat="43.98631" lon="7.26111">
        <ele>957.1298828</ele>
        <time>2012-08-19T07:51:38Z</time>
      </trkpt>
      <trkpt lat="43.98639" lon="7.26094">
        <ele>955.6877441</ele>
        <time>2012-08-19T07:51:48Z</time>
      </trkpt>
      <trkpt lat="43.98653" lon="7.26074">
        <ele>956.6491699</ele>
        <time>2012-08-19T07:51:56Z</time>
      </trkpt>
      <trkpt lat="43.98671" lon="7.26054">
        <ele>956.6491699</ele>
        <time>2012-08-19T07:52:06Z</time>
      </trkpt>
      <trkpt lat="43.98675" lon="7.26018">
        <ele>956.6491699</ele>
        <time>2012-08-19T07:52:15Z</time>
      </trkpt>
      <trkpt lat="43.9869" lon="7.25985">
        <ele>958.5717773</ele>
        <time>2012-08-19T07:52:28Z</time>
      </trkpt>
      <trkpt lat="43.98711" lon="7.25958">
        <ele>961.4558105</ele>
        <time>2012-08-19T07:52:42Z</time>
      </trkpt>
      <trkpt lat="43.98719" lon="7.25968">
        <ele>961.9365234</ele>
        <time>2012-08-19T07:52:50Z</time>
      </trkpt>
      <trkpt lat="43.98721" lon="7.2597">
        <ele>962.4169922</ele>
        <time>2012-08-19T07:52:52Z</time>
      </trkpt>
      <trkpt lat="43.98725" lon="7.25977">
        <ele>963.8588867</ele>
        <time>2012-08-19T07:53:00Z</time>
      </trkpt>
      <trkpt lat="43.98732" lon="7.25985">
        <ele>965.7817383</ele>
        <time>2012-08-19T07:53:11Z</time>
      </trkpt>
      <trkpt lat="43.98734" lon="7.25987">
        <ele>965.3010254</ele>
        <time>2012-08-19T07:53:14Z</time>
      </trkpt>
      <trkpt lat="43.98737" lon="7.25992">
        <ele>966.262207</ele>
        <time>2012-08-19T07:53:18Z</time>
      </trkpt>
      <trkpt lat="43.9874" lon="7.25992">
        <ele>966.7429199</ele>
        <time>2012-08-19T07:53:20Z</time>
      </trkpt>
      <trkpt lat="43.98749" lon="7.25999">
        <ele>967.2236328</ele>
        <time>2012-08-19T07:53:26Z</time>
      </trkpt>
      <trkpt lat="43.9877" lon="7.26008">
        <ele>969.6269531</ele>
        <time>2012-08-19T07:53:42Z</time>
      </trkpt>
      <trkpt lat="43.98781" lon="7.26018">
        <ele>971.0688477</ele>
        <time>2012-08-19T07:53:55Z</time>
      </trkpt>
      <trkpt lat="43.98787" lon="7.26031">
        <ele>973.4724121</ele>
        <time>2012-08-19T07:54:05Z</time>
      </trkpt>
      <trkpt lat="43.98788" lon="7.26031">
        <ele>973.9528809</ele>
        <time>2012-08-19T07:54:06Z</time>
      </trkpt>
      <trkpt lat="43.98788" lon="7.2603">
        <ele>973.9528809</ele>
        <time>2012-08-19T07:54:07Z</time>
      </trkpt>
      <trkpt lat="43.98806" lon="7.26036">
        <ele>976.3562012</ele>
        <time>2012-08-19T07:54:19Z</time>
      </trkpt>
      <trkpt lat="43.98806" lon="7.26035">
        <ele>975.8754883</ele>
        <time>2012-08-19T07:54:20Z</time>
      </trkpt>
      <trkpt lat="43.98814" lon="7.26047">
        <ele>978.2788086</ele>
        <time>2012-08-19T07:54:32Z</time>
      </trkpt>
      <trkpt lat="43.9883" lon="7.26053">
        <ele>978.7595215</ele>
        <time>2012-08-19T07:54:38Z</time>
      </trkpt>
      <trkpt lat="43.98847" lon="7.26071">
        <ele>979.7207031</ele>
        <time>2012-08-19T07:54:46Z</time>
      </trkpt>
      <trkpt lat="43.9885" lon="7.26073">
        <ele>980.6821289</ele>
        <time>2012-08-19T07:54:49Z</time>
      </trkpt>
      <trkpt lat="43.98853" lon="7.26085">
        <ele>980.6821289</ele>
        <time>2012-08-19T07:54:53Z</time>
      </trkpt>
      <trkpt lat="43.98861" lon="7.26085">
        <ele>982.6047363</ele>
        <time>2012-08-19T07:54:59Z</time>
      </trkpt>
      <trkpt lat="43.98886" lon="7.2609">
        <ele>984.5273438</ele>
        <time>2012-08-19T07:55:12Z</time>
      </trkpt>
      <trkpt lat="43.98895" lon="7.26093">
        <ele>985.4885254</ele>
        <time>2012-08-19T07:55:20Z</time>
      </trkpt>
      <trkpt lat="43.98903" lon="7.26102">
        <ele>987.8918457</ele>
        <time>2012-08-19T07:55:29Z</time>
      </trkpt>
      <trkpt lat="43.98915" lon="7.261">
        <ele>987.8918457</ele>
        <time>2012-08-19T07:55:34Z</time>
      </trkpt>
      <trkpt lat="43.98937" lon="7.26087">
        <ele>989.3339844</ele>
        <time>2012-08-19T07:55:47Z</time>
      </trkpt>
      <trkpt lat="43.98951" lon="7.26092">
        <ele>991.7373047</ele>
        <time>2012-08-19T07:56:00Z</time>
      </trkpt>
      <trkpt lat="43.98951" lon="7.26097">
        <ele>992.2180176</ele>
        <time>2012-08-19T07:56:02Z</time>
      </trkpt>
      <trkpt lat="43.98967" lon="7.26106">
        <ele>993.1791992</ele>
        <time>2012-08-19T07:56:13Z</time>
      </trkpt>
      <trkpt lat="43.98967" lon="7.26105">
        <ele>992.2180176</ele>
        <time>2012-08-19T07:56:14Z</time>
      </trkpt>
      <trkpt lat="43.98988" lon="7.26106">
        <ele>993.1791992</ele>
        <time>2012-08-19T07:56:24Z</time>
      </trkpt>
      <trkpt lat="43.99012" lon="7.26101">
        <ele>994.6210938</ele>
        <time>2012-08-19T07:56:35Z</time>
      </trkpt>
      <trkpt lat="43.99019" lon="7.26103">
        <ele>995.1018066</ele>
        <time>2012-08-19T07:56:39Z</time>
      </trkpt>
      <trkpt lat="43.99026" lon="7.26101">
        <ele>994.6210938</ele>
        <time>2012-08-19T07:56:43Z</time>
      </trkpt>
      <trkpt lat="43.9903" lon="7.26096">
        <ele>995.1018066</ele>
        <time>2012-08-19T07:56:48Z</time>
      </trkpt>
      <trkpt lat="43.99038" lon="7.26038">
        <ele>997.505127</ele>
        <time>2012-08-19T07:57:04Z</time>
      </trkpt>
      <trkpt lat="43.99027" lon="7.25996">
        <ele>997.9858398</ele>
        <time>2012-08-19T07:57:17Z</time>
      </trkpt>
      <trkpt lat="43.99034" lon="7.25963">
        <ele>999.9084473</ele>
        <time>2012-08-19T07:57:28Z</time>
      </trkpt>
      <trkpt lat="43.99039" lon="7.25957">
        <ele>1000.3891602</ele>
        <time>2012-08-19T07:57:32Z</time>
      </trkpt>
      <trkpt lat="43.99049" lon="7.2593">
        <ele>1002.3115234</ele>
        <time>2012-08-19T07:57:46Z</time>
      </trkpt>
      <trkpt lat="43.99053" lon="7.25907">
        <ele>1005.1958008</ele>
        <time>2012-08-19T07:58:00Z</time>
      </trkpt>
      <trkpt lat="43.99053" lon="7.25876">
        <ele>1006.6376953</ele>
        <time>2012-08-19T07:58:11Z</time>
      </trkpt>
      <trkpt lat="43.99048" lon="7.25865">
        <ele>1008.079834</ele>
        <time>2012-08-19T07:58:18Z</time>
      </trkpt>
      <trkpt lat="43.99048" lon="7.25855">
        <ele>1008.079834</ele>
        <time>2012-08-19T07:58:23Z</time>
      </trkpt>
      <trkpt lat="43.99045" lon="7.25851">
        <ele>1009.5217285</ele>
        <time>2012-08-19T07:58:27Z</time>
      </trkpt>
      <trkpt lat="43.99049" lon="7.25842">
        <ele>1010.4829102</ele>
        <time>2012-08-19T07:58:32Z</time>
      </trkpt>
      <trkpt lat="43.99054" lon="7.2582">
        <ele>1012.4055176</ele>
        <time>2012-08-19T07:58:45Z</time>
      </trkpt>
      <trkpt lat="43.99055" lon="7.25816">
        <ele>1012.4055176</ele>
        <time>2012-08-19T07:58:48Z</time>
      </trkpt>
      <trkpt lat="43.99052" lon="7.25785">
        <ele>1015.2895508</ele>
        <time>2012-08-19T07:59:05Z</time>
      </trkpt>
      <trkpt lat="43.99049" lon="7.25767">
        <ele>1018.1733398</ele>
        <time>2012-08-19T07:59:18Z</time>
      </trkpt>
      <trkpt lat="43.99046" lon="7.2574">
        <ele>1020.0961914</ele>
        <time>2012-08-19T07:59:33Z</time>
      </trkpt>
      <trkpt lat="43.99049" lon="7.25716">
        <ele>1022.0187988</ele>
        <time>2012-08-19T07:59:49Z</time>
      </trkpt>
      <trkpt lat="43.99052" lon="7.25686">
        <ele>1024.902832</ele>
        <time>2012-08-19T08:00:08Z</time>
      </trkpt>
      <trkpt lat="43.99057" lon="7.25667">
        <ele>1026.3447266</ele>
        <time>2012-08-19T08:00:19Z</time>
      </trkpt>
      <trkpt lat="43.99075" lon="7.25655">
        <ele>1028.267334</ele>
        <time>2012-08-19T08:00:37Z</time>
      </trkpt>
      <trkpt lat="43.99083" lon="7.25654">
        <ele>1030.1899414</ele>
        <time>2012-08-19T08:00:47Z</time>
      </trkpt>
      <trkpt lat="43.99106" lon="7.2566">
        <ele>1031.6318359</ele>
        <time>2012-08-19T08:01:03Z</time>
      </trkpt>
      <trkpt lat="43.99108" lon="7.25663">
        <ele>1031.6318359</ele>
        <time>2012-08-19T08:01:05Z</time>
      </trkpt>
      <trkpt lat="43.99141" lon="7.25676">
        <ele>1033.0737305</ele>
        <time>2012-08-19T08:01:21Z</time>
      </trkpt>
      <trkpt lat="43.99167" lon="7.2568">
        <ele>1034.996582</ele>
        <time>2012-08-19T08:01:34Z</time>
      </trkpt>
      <trkpt lat="43.99169" lon="7.2568">
        <ele>1035.4770508</ele>
        <time>2012-08-19T08:01:35Z</time>
      </trkpt>
      <trkpt lat="43.99201" lon="7.25674">
        <ele>1036.4387207</ele>
        <time>2012-08-19T08:01:49Z</time>
      </trkpt>
      <trkpt lat="43.99231" lon="7.25636">
        <ele>1037.8806152</ele>
        <time>2012-08-19T08:02:01Z</time>
      </trkpt>
      <trkpt lat="43.99236" lon="7.25636">
        <ele>1036.9191895</ele>
        <time>2012-08-19T08:02:04Z</time>
      </trkpt>
      <trkpt lat="43.9926" lon="7.25626">
        <ele>1038.842041</ele>
        <time>2012-08-19T08:02:17Z</time>
      </trkpt>
      <trkpt lat="43.99273" lon="7.25616">
        <ele>1038.3613281</ele>
        <time>2012-08-19T08:02:23Z</time>
      </trkpt>
      <trkpt lat="43.9928" lon="7.25615">
        <ele>1038.842041</ele>
        <time>2012-08-19T08:02:28Z</time>
      </trkpt>
      <trkpt lat="43.99285" lon="7.25611">
        <ele>1039.8032227</ele>
        <time>2012-08-19T08:02:32Z</time>
      </trkpt>
      <trkpt lat="43.99308" lon="7.25593">
        <ele>1042.206543</ele>
        <time>2012-08-19T08:02:47Z</time>
      </trkpt>
      <trkpt lat="43.99312" lon="7.25595">
        <ele>1045.090332</ele>
        <time>2012-08-19T08:02:58Z</time>
      </trkpt>
      <trkpt lat="43.99317" lon="7.25597">
        <ele>1047.9743652</ele>
        <time>2012-08-19T08:03:11Z</time>
      </trkpt>
      <trkpt lat="43.99323" lon="7.25584">
        <ele>1050.8581543</ele>
        <time>2012-08-19T08:03:24Z</time>
      </trkpt>
      <trkpt lat="43.99334" lon="7.25569">
        <ele>1053.7424316</ele>
        <time>2012-08-19T08:03:40Z</time>
      </trkpt>
      <trkpt lat="43.99349" lon="7.25558">
        <ele>1057.1069336</ele>
        <time>2012-08-19T08:03:57Z</time>
      </trkpt>
      <trkpt lat="43.99353" lon="7.25553">
        <ele>1059.9907227</ele>
        <time>2012-08-19T08:04:09Z</time>
      </trkpt>
      <trkpt lat="43.99364" lon="7.25546">
        <ele>1063.3554688</ele>
        <time>2012-08-19T08:04:26Z</time>
      </trkpt>
      <trkpt lat="43.99351" lon="7.25554">
        <ele>1066.2392578</ele>
        <time>2012-08-19T08:04:42Z</time>
      </trkpt>
      <trkpt lat="43.99352" lon="7.25555">
        <ele>1067.6811523</ele>
        <time>2012-08-19T08:04:46Z</time>
      </trkpt>
      <trkpt lat="43.99366" lon="7.25567">
        <ele>1070.5654297</ele>
        <time>2012-08-19T08:05:01Z</time>
      </trkpt>
      <trkpt lat="43.9937" lon="7.25569">
        <ele>1071.5266113</ele>
        <time>2012-08-19T08:05:05Z</time>
      </trkpt>
      <trkpt lat="43.99377" lon="7.25578">
        <ele>1073.9299316</ele>
        <time>2012-08-19T08:05:14Z</time>
      </trkpt>
      <trkpt lat="43.99384" lon="7.25577">
        <ele>1077.2946777</ele>
        <time>2012-08-19T08:05:29Z</time>
      </trkpt>
      <trkpt lat="43.99387" lon="7.25577">
        <ele>1080.6591797</ele>
        <time>2012-08-19T08:05:44Z</time>
      </trkpt>
      <trkpt lat="43.99386" lon="7.25577">
        <ele>1081.1398926</ele>
        <time>2012-08-19T08:05:45Z</time>
      </trkpt>
      <trkpt lat="43.99381" lon="7.25577">
        <ele>1081.6203613</ele>
        <time>2012-08-19T08:05:50Z</time>
      </trkpt>
      <trkpt lat="43.99368" lon="7.25586">
        <ele>1081.6203613</ele>
        <time>2012-08-19T08:05:59Z</time>
      </trkpt>
      <trkpt lat="43.99363" lon="7.25607">
        <ele>1082.1010742</ele>
        <time>2012-08-19T08:06:09Z</time>
      </trkpt>
      <trkpt lat="43.99362" lon="7.2563">
        <ele>1082.5817871</ele>
        <time>2012-08-19T08:06:17Z</time>
      </trkpt>
      <trkpt lat="43.99358" lon="7.25632">
        <ele>1082.5817871</ele>
        <time>2012-08-19T08:06:20Z</time>
      </trkpt>
      <trkpt lat="43.99354" lon="7.25634">
        <ele>1083.5429688</ele>
        <time>2012-08-19T08:06:23Z</time>
      </trkpt>
      <trkpt lat="43.99349" lon="7.25633">
        <ele>1084.0239258</ele>
        <time>2012-08-19T08:06:28Z</time>
      </trkpt>
      <trkpt lat="43.99336" lon="7.25648">
        <ele>1084.9853516</ele>
        <time>2012-08-19T08:06:38Z</time>
      </trkpt>
      <trkpt lat="43.99312" lon="7.25674">
        <ele>1084.5046387</ele>
        <time>2012-08-19T08:06:53Z</time>
      </trkpt>
      <trkpt lat="43.99292" lon="7.25692">
        <ele>1085.9465332</ele>
        <time>2012-08-19T08:07:07Z</time>
      </trkpt>
      <trkpt lat="43.99258" lon="7.25704">
        <ele>1083.5429688</ele>
        <time>2012-08-19T08:07:20Z</time>
      </trkpt>
      <trkpt lat="43.99221" lon="7.25712">
        <ele>1082.5817871</ele>
        <time>2012-08-19T08:07:34Z</time>
      </trkpt>
      <trkpt lat="43.99202" lon="7.2574">
        <ele>1081.6203613</ele>
        <time>2012-08-19T08:07:46Z</time>
      </trkpt>
      <trkpt lat="43.99177" lon="7.25738">
        <ele>1081.6203613</ele>
        <time>2012-08-19T08:07:57Z</time>
      </trkpt>
      <trkpt lat="43.99162" lon="7.25741">
        <ele>1083.5429688</ele>
        <time>2012-08-19T08:08:05Z</time>
      </trkpt>
      <trkpt lat="43.99148" lon="7.25742">
        <ele>1083.0622559</ele>
        <time>2012-08-19T08:08:13Z</time>
      </trkpt>
      <trkpt lat="43.99131" lon="7.2575">
        <ele>1085.9465332</ele>
        <time>2012-08-19T08:08:28Z</time>
      </trkpt>
      <trkpt lat="43.99126" lon="7.25773">
        <ele>1084.9853516</ele>
        <time>2012-08-19T08:08:39Z</time>
      </trkpt>
      <trkpt lat="43.99129" lon="7.25794">
        <ele>1084.5046387</ele>
        <time>2012-08-19T08:08:52Z</time>
      </trkpt>
      <trkpt lat="43.99133" lon="7.25803">
        <ele>1084.0239258</ele>
        <time>2012-08-19T08:09:11Z</time>
      </trkpt>
      <trkpt lat="43.99138" lon="7.25821">
        <ele>1084.5046387</ele>
        <time>2012-08-19T08:09:25Z</time>
      </trkpt>
      <trkpt lat="43.99141" lon="7.25841">
        <ele>1085.4658203</ele>
        <time>2012-08-19T08:09:41Z</time>
      </trkpt>
      <trkpt lat="43.99142" lon="7.25851">
        <ele>1084.9853516</ele>
        <time>2012-08-19T08:09:58Z</time>
      </trkpt>
      <trkpt lat="43.99144" lon="7.25858">
        <ele>1084.9853516</ele>
        <time>2012-08-19T08:10:04Z</time>
      </trkpt>
      <trkpt lat="43.99147" lon="7.25867">
        <ele>1085.9465332</ele>
        <time>2012-08-19T08:10:10Z</time>
      </trkpt>
      <trkpt lat="43.99146" lon="7.25891">
        <ele>1087.3884277</ele>
        <time>2012-08-19T08:10:27Z</time>
      </trkpt>
      <trkpt lat="43.99135" lon="7.25913">
        <ele>1088.8305664</ele>
        <time>2012-08-19T08:10:44Z</time>
      </trkpt>
      <trkpt lat="43.99137" lon="7.25922">
        <ele>1089.3110352</ele>
        <time>2012-08-19T08:10:49Z</time>
      </trkpt>
      <trkpt lat="43.99139" lon="7.25928">
        <ele>1089.3110352</ele>
        <time>2012-08-19T08:10:53Z</time>
      </trkpt>
      <trkpt lat="43.99142" lon="7.25949">
        <ele>1090.2724609</ele>
        <time>2012-08-19T08:11:07Z</time>
      </trkpt>
      <trkpt lat="43.99142" lon="7.25974">
        <ele>1091.7143555</ele>
        <time>2012-08-19T08:11:26Z</time>
      </trkpt>
      <trkpt lat="43.99142" lon="7.25994">
        <ele>1093.6369629</ele>
        <time>2012-08-19T08:11:44Z</time>
      </trkpt>
      <trkpt lat="43.99143" lon="7.25995">
        <ele>1094.1176758</ele>
        <time>2012-08-19T08:11:45Z</time>
      </trkpt>
      <trkpt lat="43.99159" lon="7.26004">
        <ele>1097.9628906</ele>
        <time>2012-08-19T08:11:59Z</time>
      </trkpt>
      <trkpt lat="43.99169" lon="7.26007">
        <ele>1098.9240723</ele>
        <time>2012-08-19T08:12:05Z</time>
      </trkpt>
      <trkpt lat="43.9918" lon="7.26018">
        <ele>1101.8083496</ele>
        <time>2012-08-19T08:12:16Z</time>
      </trkpt>
      <trkpt lat="43.99183" lon="7.26022">
        <ele>1102.7695313</ele>
        <time>2012-08-19T08:12:21Z</time>
      </trkpt>
      <trkpt lat="43.99178" lon="7.26043">
        <ele>1103.730957</ele>
        <time>2012-08-19T08:12:30Z</time>
      </trkpt>
      <trkpt lat="43.99178" lon="7.26052">
        <ele>1103.2502441</ele>
        <time>2012-08-19T08:12:35Z</time>
      </trkpt>
      <trkpt lat="43.99187" lon="7.26066">
        <ele>1104.6921387</ele>
        <time>2012-08-19T08:12:47Z</time>
      </trkpt>
      <trkpt lat="43.99192" lon="7.26087">
        <ele>1106.1340332</ele>
        <time>2012-08-19T08:12:59Z</time>
      </trkpt>
      <trkpt lat="43.99194" lon="7.26093">
        <ele>1105.6535645</ele>
        <time>2012-08-19T08:13:02Z</time>
      </trkpt>
      <trkpt lat="43.99193" lon="7.26102">
        <ele>1107.095459</ele>
        <time>2012-08-19T08:13:07Z</time>
      </trkpt>
      <trkpt lat="43.992" lon="7.26108">
        <ele>1106.6147461</ele>
        <time>2012-08-19T08:13:12Z</time>
      </trkpt>
      <trkpt lat="43.99213" lon="7.26122">
        <ele>1109.4987793</ele>
        <time>2012-08-19T08:13:25Z</time>
      </trkpt>
      <trkpt lat="43.99223" lon="7.26132">
        <ele>1112.8632813</ele>
        <time>2012-08-19T08:13:39Z</time>
      </trkpt>
      <trkpt lat="43.99237" lon="7.26138">
        <ele>1115.7473145</ele>
        <time>2012-08-19T08:13:53Z</time>
      </trkpt>
      <trkpt lat="43.99252" lon="7.26145">
        <ele>1116.2280273</ele>
        <time>2012-08-19T08:14:07Z</time>
      </trkpt>
      <trkpt lat="43.9926" lon="7.26152">
        <ele>1115.7473145</ele>
        <time>2012-08-19T08:14:12Z</time>
      </trkpt>
      <trkpt lat="43.99259" lon="7.26169">
        <ele>1118.1506348</ele>
        <time>2012-08-19T08:14:25Z</time>
      </trkpt>
      <trkpt lat="43.9926" lon="7.26177">
        <ele>1119.1120605</ele>
        <time>2012-08-19T08:14:32Z</time>
      </trkpt>
      <trkpt lat="43.99261" lon="7.26203">
        <ele>1117.6699219</ele>
        <time>2012-08-19T08:14:36Z</time>
      </trkpt>
      <trkpt lat="43.99256" lon="7.26209">
        <ele>1118.6313477</ele>
        <time>2012-08-19T08:14:42Z</time>
      </trkpt>
      <trkpt lat="43.99251" lon="7.2621">
        <ele>1119.5927734</ele>
        <time>2012-08-19T08:14:46Z</time>
      </trkpt>
      <trkpt lat="43.9923" lon="7.26204">
        <ele>1121.9958496</ele>
        <time>2012-08-19T08:14:59Z</time>
      </trkpt>
      <trkpt lat="43.99212" lon="7.26211">
        <ele>1123.918457</ele>
        <time>2012-08-19T08:15:11Z</time>
      </trkpt>
      <trkpt lat="43.99211" lon="7.26212">
        <ele>1124.3991699</ele>
        <time>2012-08-19T08:15:12Z</time>
      </trkpt>
      <trkpt lat="43.99197" lon="7.26226">
        <ele>1126.8024902</ele>
        <time>2012-08-19T08:15:27Z</time>
      </trkpt>
      <trkpt lat="43.99188" lon="7.26234">
        <ele>1129.6862793</ele>
        <time>2012-08-19T08:15:39Z</time>
      </trkpt>
      <trkpt lat="43.99179" lon="7.26243">
        <ele>1133.0510254</ele>
        <time>2012-08-19T08:15:53Z</time>
      </trkpt>
      <trkpt lat="43.99166" lon="7.2626">
        <ele>1136.4157715</ele>
        <time>2012-08-19T08:16:11Z</time>
      </trkpt>
      <trkpt lat="43.99151" lon="7.2627">
        <ele>1139.7802734</ele>
        <time>2012-08-19T08:16:31Z</time>
      </trkpt>
      <trkpt lat="43.9915" lon="7.2627">
        <ele>1140.2609863</ele>
        <time>2012-08-19T08:16:33Z</time>
      </trkpt>
      <trkpt lat="43.9913" lon="7.26269">
        <ele>1144.1062012</ele>
        <time>2012-08-19T08:16:53Z</time>
      </trkpt>
      <trkpt lat="43.9913" lon="7.26269">
        <ele>1144.1062012</ele>
        <time>2012-08-19T08:16:54Z</time>
      </trkpt>
      <trkpt lat="43.99116" lon="7.26267">
        <ele>1147.4707031</ele>
        <time>2012-08-19T08:17:09Z</time>
      </trkpt>
      <trkpt lat="43.99101" lon="7.26265">
        <ele>1150.3549805</ele>
        <time>2012-08-19T08:17:25Z</time>
      </trkpt>
      <trkpt lat="43.99088" lon="7.26285">
        <ele>1152.7580566</ele>
        <time>2012-08-19T08:17:41Z</time>
      </trkpt>
      <trkpt lat="43.99086" lon="7.26287">
        <ele>1153.2387695</ele>
        <time>2012-08-19T08:17:43Z</time>
      </trkpt>
      <trkpt lat="43.99085" lon="7.26289">
        <ele>1153.2387695</ele>
        <time>2012-08-19T08:17:45Z</time>
      </trkpt>
      <trkpt lat="43.99084" lon="7.26298">
        <ele>1154.2001953</ele>
        <time>2012-08-19T08:17:49Z</time>
      </trkpt>
      <trkpt lat="43.99083" lon="7.26311">
        <ele>1155.161377</ele>
        <time>2012-08-19T08:17:55Z</time>
      </trkpt>
      <trkpt lat="43.99082" lon="7.26337">
        <ele>1158.5258789</ele>
        <time>2012-08-19T08:18:15Z</time>
      </trkpt>
      <trkpt lat="43.9907" lon="7.26341">
        <ele>1160.4484863</ele>
        <time>2012-08-19T08:18:28Z</time>
      </trkpt>
      <trkpt lat="43.9905" lon="7.26344">
        <ele>1160.9291992</ele>
        <time>2012-08-19T08:18:39Z</time>
      </trkpt>
      <trkpt lat="43.99038" lon="7.26348">
        <ele>1164.2939453</ele>
        <time>2012-08-19T08:18:52Z</time>
      </trkpt>
      <trkpt lat="43.99026" lon="7.26356">
        <ele>1166.6972656</ele>
        <time>2012-08-19T08:19:00Z</time>
      </trkpt>
      <trkpt lat="43.99026" lon="7.26363">
        <ele>1165.736084</ele>
        <time>2012-08-19T08:19:09Z</time>
      </trkpt>
      <trkpt lat="43.9903" lon="7.2637">
        <ele>1164.7746582</ele>
        <time>2012-08-19T08:19:13Z</time>
      </trkpt>
      <trkpt lat="43.99052" lon="7.26404">
        <ele>1162.8518066</ele>
        <time>2012-08-19T08:19:28Z</time>
      </trkpt>
      <trkpt lat="43.99064" lon="7.26433">
        <ele>1161.890625</ele>
        <time>2012-08-19T08:19:40Z</time>
      </trkpt>
      <trkpt lat="43.99085" lon="7.2645">
        <ele>1159.9677734</ele>
        <time>2012-08-19T08:19:52Z</time>
      </trkpt>
      <trkpt lat="43.99086" lon="7.26451">
        <ele>1159.9677734</ele>
        <time>2012-08-19T08:19:53Z</time>
      </trkpt>
      <trkpt lat="43.99097" lon="7.26445">
        <ele>1158.5258789</ele>
        <time>2012-08-19T08:20:01Z</time>
      </trkpt>
      <trkpt lat="43.99109" lon="7.26443">
        <ele>1156.6032715</ele>
        <time>2012-08-19T08:20:10Z</time>
      </trkpt>
      <trkpt lat="43.99131" lon="7.26433">
        <ele>1155.161377</ele>
        <time>2012-08-19T08:20:17Z</time>
      </trkpt>
      <trkpt lat="43.99163" lon="7.26449">
        <ele>1156.1225586</ele>
        <time>2012-08-19T08:20:33Z</time>
      </trkpt>
      <trkpt lat="43.99187" lon="7.26475">
        <ele>1153.7194824</ele>
        <time>2012-08-19T08:20:46Z</time>
      </trkpt>
      <trkpt lat="43.99205" lon="7.26491">
        <ele>1152.2773438</ele>
        <time>2012-08-19T08:20:58Z</time>
      </trkpt>
      <trkpt lat="43.99207" lon="7.26501">
        <ele>1152.7580566</ele>
        <time>2012-08-19T08:21:03Z</time>
      </trkpt>
      <trkpt lat="43.99199" lon="7.26517">
        <ele>1152.2773438</ele>
        <time>2012-08-19T08:21:14Z</time>
      </trkpt>
      <trkpt lat="43.99176" lon="7.26557">
        <ele>1153.2387695</ele>
        <time>2012-08-19T08:21:26Z</time>
      </trkpt>
      <trkpt lat="43.99168" lon="7.26563">
        <ele>1155.161377</ele>
        <time>2012-08-19T08:21:36Z</time>
      </trkpt>
      <trkpt lat="43.99173" lon="7.26576">
        <ele>1153.2387695</ele>
        <time>2012-08-19T08:21:41Z</time>
      </trkpt>
      <trkpt lat="43.99176" lon="7.26602">
        <ele>1154.2001953</ele>
        <time>2012-08-19T08:21:54Z</time>
      </trkpt>
      <trkpt lat="43.99183" lon="7.26636">
        <ele>1155.161377</ele>
        <time>2012-08-19T08:22:08Z</time>
      </trkpt>
      <trkpt lat="43.99192" lon="7.26645">
        <ele>1156.1225586</ele>
        <time>2012-08-19T08:22:14Z</time>
      </trkpt>
      <trkpt lat="43.99215" lon="7.2666">
        <ele>1155.161377</ele>
        <time>2012-08-19T08:22:26Z</time>
      </trkpt>
      <trkpt lat="43.99226" lon="7.26688">
        <ele>1154.6806641</ele>
        <time>2012-08-19T08:22:39Z</time>
      </trkpt>
      <trkpt lat="43.99218" lon="7.26728">
        <ele>1154.2001953</ele>
        <time>2012-08-19T08:22:52Z</time>
      </trkpt>
      <trkpt lat="43.99192" lon="7.26776">
        <ele>1154.6806641</ele>
        <time>2012-08-19T08:23:02Z</time>
      </trkpt>
      <trkpt lat="43.99155" lon="7.26826">
        <ele>1156.6032715</ele>
        <time>2012-08-19T08:23:17Z</time>
      </trkpt>
      <trkpt lat="43.99138" lon="7.26833">
        <ele>1158.5258789</ele>
        <time>2012-08-19T08:23:30Z</time>
      </trkpt>
      <trkpt lat="43.99121" lon="7.26839">
        <ele>1161.4099121</ele>
        <time>2012-08-19T08:23:45Z</time>
      </trkpt>
      <trkpt lat="43.99102" lon="7.26846">
        <ele>1164.2939453</ele>
        <time>2012-08-19T08:23:59Z</time>
      </trkpt>
      <trkpt lat="43.99094" lon="7.26843">
        <ele>1165.736084</ele>
        <time>2012-08-19T08:24:05Z</time>
      </trkpt>
      <trkpt lat="43.99067" lon="7.26831">
        <ele>1168.619873</ele>
        <time>2012-08-19T08:24:22Z</time>
      </trkpt>
      <trkpt lat="43.9903" lon="7.26828">
        <ele>1170.5424805</ele>
        <time>2012-08-19T08:24:42Z</time>
      </trkpt>
      <trkpt lat="43.99022" lon="7.26857">
        <ele>1170.5424805</ele>
        <time>2012-08-19T08:24:54Z</time>
      </trkpt>
      <trkpt lat="43.99016" lon="7.26892">
        <ele>1170.5424805</ele>
        <time>2012-08-19T08:25:07Z</time>
      </trkpt>
      <trkpt lat="43.9899" lon="7.26903">
        <ele>1171.5036621</ele>
        <time>2012-08-19T08:25:20Z</time>
      </trkpt>
      <trkpt lat="43.98959" lon="7.26919">
        <ele>1173.9069824</ele>
        <time>2012-08-19T08:25:35Z</time>
      </trkpt>
      <trkpt lat="43.9895" lon="7.26938">
        <ele>1172.9458008</ele>
        <time>2012-08-19T08:25:42Z</time>
      </trkpt>
      <trkpt lat="43.98953" lon="7.26952">
        <ele>1172.9458008</ele>
        <time>2012-08-19T08:25:46Z</time>
      </trkpt>
      <trkpt lat="43.98958" lon="7.26995">
        <ele>1171.0231934</ele>
        <time>2012-08-19T08:25:59Z</time>
      </trkpt>
      <trkpt lat="43.98957" lon="7.27007">
        <ele>1171.0231934</ele>
        <time>2012-08-19T08:26:04Z</time>
      </trkpt>
      <trkpt lat="43.9895" lon="7.27024">
        <ele>1171.0231934</ele>
        <time>2012-08-19T08:26:08Z</time>
      </trkpt>
      <trkpt lat="43.98924" lon="7.27047">
        <ele>1173.9069824</ele>
        <time>2012-08-19T08:26:22Z</time>
      </trkpt>
      <trkpt lat="43.98914" lon="7.27055">
        <ele>1174.3876953</ele>
        <time>2012-08-19T08:26:28Z</time>
      </trkpt>
      <trkpt lat="43.98914" lon="7.27066">
        <ele>1172.9458008</ele>
        <time>2012-08-19T08:26:32Z</time>
      </trkpt>
      <trkpt lat="43.9892" lon="7.27092">
        <ele>1170.0617676</ele>
        <time>2012-08-19T08:26:41Z</time>
      </trkpt>
      <trkpt lat="43.98921" lon="7.27097">
        <ele>1169.1005859</ele>
        <time>2012-08-19T08:26:43Z</time>
      </trkpt>
      <trkpt lat="43.98921" lon="7.27098">
        <ele>1169.5812988</ele>
        <time>2012-08-19T08:26:54Z</time>
      </trkpt>
      <trkpt lat="43.98925" lon="7.27104">
        <ele>1167.6584473</ele>
        <time>2012-08-19T08:26:59Z</time>
      </trkpt>
      <trkpt lat="43.98911" lon="7.27104">
        <ele>1164.7746582</ele>
        <time>2012-08-19T08:27:06Z</time>
      </trkpt>
      <trkpt lat="43.98903" lon="7.27104">
        <ele>1162.8518066</ele>
        <time>2012-08-19T08:27:09Z</time>
      </trkpt>
      <trkpt lat="43.98885" lon="7.27106">
        <ele>1159.9677734</ele>
        <time>2012-08-19T08:27:15Z</time>
      </trkpt>
      <trkpt lat="43.98863" lon="7.27112">
        <ele>1157.0839844</ele>
        <time>2012-08-19T08:27:24Z</time>
      </trkpt>
      <trkpt lat="43.98856" lon="7.27107">
        <ele>1156.6032715</ele>
        <time>2012-08-19T08:27:27Z</time>
      </trkpt>
      <trkpt lat="43.98831" lon="7.27099">
        <ele>1152.2773438</ele>
        <time>2012-08-19T08:27:37Z</time>
      </trkpt>
      <trkpt lat="43.98825" lon="7.271">
        <ele>1150.3549805</ele>
        <time>2012-08-19T08:27:40Z</time>
      </trkpt>
      <trkpt lat="43.9882" lon="7.27096">
        <ele>1148.9128418</ele>
        <time>2012-08-19T08:27:49Z</time>
      </trkpt>
      <trkpt lat="43.9881" lon="7.27098">
        <ele>1145.5480957</ele>
        <time>2012-08-19T08:27:54Z</time>
      </trkpt>
      <trkpt lat="43.98808" lon="7.27098">
        <ele>1146.0288086</ele>
        <time>2012-08-19T08:27:55Z</time>
      </trkpt>
      <trkpt lat="43.988" lon="7.27097">
        <ele>1144.5866699</ele>
        <time>2012-08-19T08:27:58Z</time>
      </trkpt>
      <trkpt lat="43.98781" lon="7.27095">
        <ele>1139.7802734</ele>
        <time>2012-08-19T08:28:06Z</time>
      </trkpt>
      <trkpt lat="43.98772" lon="7.27098">
        <ele>1136.8962402</ele>
        <time>2012-08-19T08:28:10Z</time>
      </trkpt>
      <trkpt lat="43.98757" lon="7.27101">
        <ele>1133.5317383</ele>
        <time>2012-08-19T08:28:16Z</time>
      </trkpt>
      <trkpt lat="43.98743" lon="7.27109">
        <ele>1131.128418</ele>
        <time>2012-08-19T08:28:22Z</time>
      </trkpt>
      <trkpt lat="43.98747" lon="7.27115">
        <ele>1129.6862793</ele>
        <time>2012-08-19T08:28:26Z</time>
      </trkpt>
      <trkpt lat="43.9875" lon="7.27117">
        <ele>1128.7250977</ele>
        <time>2012-08-19T08:28:28Z</time>
      </trkpt>
      <trkpt lat="43.9875" lon="7.27119">
        <ele>1128.7250977</ele>
        <time>2012-08-19T08:28:29Z</time>
      </trkpt>
      <trkpt lat="43.98733" lon="7.27123">
        <ele>1124.8798828</ele>
        <time>2012-08-19T08:28:37Z</time>
      </trkpt>
      <trkpt lat="43.9872" lon="7.27113">
        <ele>1122.4765625</ele>
        <time>2012-08-19T08:28:43Z</time>
      </trkpt>
      <trkpt lat="43.98716" lon="7.27115">
        <ele>1121.9958496</ele>
        <time>2012-08-19T08:28:45Z</time>
      </trkpt>
      <trkpt lat="43.98707" lon="7.27125">
        <ele>1118.6313477</ele>
        <time>2012-08-19T08:28:50Z</time>
      </trkpt>
      <trkpt lat="43.98705" lon="7.27128">
        <ele>1118.6313477</ele>
        <time>2012-08-19T08:28:51Z</time>
      </trkpt>
      <trkpt lat="43.9869" lon="7.27141">
        <ele>1114.7858887</ele>
        <time>2012-08-19T08:28:59Z</time>
      </trkpt>
      <trkpt lat="43.98688" lon="7.27141">
        <ele>1115.2666016</ele>
        <time>2012-08-19T08:29:00Z</time>
      </trkpt>
      <trkpt lat="43.98671" lon="7.27122">
        <ele>1111.9020996</ele>
        <time>2012-08-19T08:29:09Z</time>
      </trkpt>
      <trkpt lat="43.98657" lon="7.27111">
        <ele>1110.4599609</ele>
        <time>2012-08-19T08:29:15Z</time>
      </trkpt>
      <trkpt lat="43.9864" lon="7.27112">
        <ele>1109.4987793</ele>
        <time>2012-08-19T08:29:23Z</time>
      </trkpt>
      <trkpt lat="43.98637" lon="7.27111">
        <ele>1108.5373535</ele>
        <time>2012-08-19T08:29:25Z</time>
      </trkpt>
      <trkpt lat="43.98605" lon="7.27125">
        <ele>1108.0568848</ele>
        <time>2012-08-19T08:29:39Z</time>
      </trkpt>
      <trkpt lat="43.9859" lon="7.27132">
        <ele>1107.095459</ele>
        <time>2012-08-19T08:29:45Z</time>
      </trkpt>
      <trkpt lat="43.98569" lon="7.2712">
        <ele>1104.6921387</ele>
        <time>2012-08-19T08:29:54Z</time>
      </trkpt>
      <trkpt lat="43.98559" lon="7.27124">
        <ele>1105.1728516</ele>
        <time>2012-08-19T08:29:59Z</time>
      </trkpt>
      <trkpt lat="43.98539" lon="7.27154">
        <ele>1105.1728516</ele>
        <time>2012-08-19T08:30:11Z</time>
      </trkpt>
      <trkpt lat="43.98513" lon="7.27167">
        <ele>1104.6921387</ele>
        <time>2012-08-19T08:30:22Z</time>
      </trkpt>
      <trkpt lat="43.98506" lon="7.27168">
        <ele>1104.6921387</ele>
        <time>2012-08-19T08:30:25Z</time>
      </trkpt>
      <trkpt lat="43.98501" lon="7.27174">
        <ele>1103.730957</ele>
        <time>2012-08-19T08:30:29Z</time>
      </trkpt>
      <trkpt lat="43.98488" lon="7.27216">
        <ele>1103.730957</ele>
        <time>2012-08-19T08:30:43Z</time>
      </trkpt>
      <trkpt lat="43.98485" lon="7.27244">
        <ele>1102.7695313</ele>
        <time>2012-08-19T08:30:58Z</time>
      </trkpt>
      <trkpt lat="43.98484" lon="7.2725">
        <ele>1103.2502441</ele>
        <time>2012-08-19T08:31:05Z</time>
      </trkpt>
      <trkpt lat="43.98478" lon="7.27256">
        <ele>1101.8083496</ele>
        <time>2012-08-19T08:31:09Z</time>
      </trkpt>
      <trkpt lat="43.98451" lon="7.27304">
        <ele>1102.7695313</ele>
        <time>2012-08-19T08:31:22Z</time>
      </trkpt>
      <trkpt lat="43.98445" lon="7.27329">
        <ele>1105.6535645</ele>
        <time>2012-08-19T08:31:33Z</time>
      </trkpt>
      <trkpt lat="43.98438" lon="7.27373">
        <ele>1105.1728516</ele>
        <time>2012-08-19T08:31:45Z</time>
      </trkpt>
      <trkpt lat="43.98433" lon="7.27404">
        <ele>1107.095459</ele>
        <time>2012-08-19T08:31:59Z</time>
      </trkpt>
      <trkpt lat="43.98433" lon="7.27406">
        <ele>1107.5761719</ele>
        <time>2012-08-19T08:32:00Z</time>
      </trkpt>
      <trkpt lat="43.98435" lon="7.27414">
        <ele>1107.5761719</ele>
        <time>2012-08-19T08:32:05Z</time>
      </trkpt>
      <trkpt lat="43.98439" lon="7.27423">
        <ele>1108.0568848</ele>
        <time>2012-08-19T08:32:10Z</time>
      </trkpt>
      <trkpt lat="43.98439" lon="7.27443">
        <ele>1109.4987793</ele>
        <time>2012-08-19T08:32:21Z</time>
      </trkpt>
      <trkpt lat="43.98441" lon="7.27468">
        <ele>1111.4213867</ele>
        <time>2012-08-19T08:32:34Z</time>
      </trkpt>
      <trkpt lat="43.98445" lon="7.27493">
        <ele>1114.7858887</ele>
        <time>2012-08-19T08:32:50Z</time>
      </trkpt>
      <trkpt lat="43.9844" lon="7.27524">
        <ele>1117.6699219</ele>
        <time>2012-08-19T08:33:07Z</time>
      </trkpt>
      <trkpt lat="43.98437" lon="7.27541">
        <ele>1118.6313477</ele>
        <time>2012-08-19T08:33:16Z</time>
      </trkpt>
      <trkpt lat="43.98431" lon="7.27558">
        <ele>1120.0732422</ele>
        <time>2012-08-19T08:33:26Z</time>
      </trkpt>
      <trkpt lat="43.9841" lon="7.27575">
        <ele>1119.5927734</ele>
        <time>2012-08-19T08:33:38Z</time>
      </trkpt>
      <trkpt lat="43.98392" lon="7.27591">
        <ele>1121.5151367</ele>
        <time>2012-08-19T08:33:51Z</time>
      </trkpt>
      <trkpt lat="43.9839" lon="7.27593">
        <ele>1122.4765625</ele>
        <time>2012-08-19T08:33:53Z</time>
      </trkpt>
      <trkpt lat="43.98376" lon="7.27618">
        <ele>1123.4379883</ele>
        <time>2012-08-19T08:34:07Z</time>
      </trkpt>
      <trkpt lat="43.98373" lon="7.27622">
        <ele>1124.3991699</ele>
        <time>2012-08-19T08:34:10Z</time>
      </trkpt>
      <trkpt lat="43.98369" lon="7.27633">
        <ele>1124.8798828</ele>
        <time>2012-08-19T08:34:17Z</time>
      </trkpt>
      <trkpt lat="43.98368" lon="7.27635">
        <ele>1124.3991699</ele>
        <time>2012-08-19T08:34:19Z</time>
      </trkpt>
      <trkpt lat="43.98365" lon="7.27641">
        <ele>1125.3603516</ele>
        <time>2012-08-19T08:34:23Z</time>
      </trkpt>
      <trkpt lat="43.98347" lon="7.27671">
        <ele>1126.8024902</ele>
        <time>2012-08-19T08:34:40Z</time>
      </trkpt>
      <trkpt lat="43.98324" lon="7.27698">
        <ele>1128.7250977</ele>
        <time>2012-08-19T08:34:58Z</time>
      </trkpt>
      <trkpt lat="43.98312" lon="7.27701">
        <ele>1129.2055664</ele>
        <time>2012-08-19T08:35:05Z</time>
      </trkpt>
      <trkpt lat="43.98292" lon="7.27704">
        <ele>1130.6477051</ele>
        <time>2012-08-19T08:35:15Z</time>
      </trkpt>
      <trkpt lat="43.98267" lon="7.27705">
        <ele>1130.1669922</ele>
        <time>2012-08-19T08:35:26Z</time>
      </trkpt>
      <trkpt lat="43.98242" lon="7.27693">
        <ele>1131.6088867</ele>
        <time>2012-08-19T08:35:39Z</time>
      </trkpt>
      <trkpt lat="43.98223" lon="7.27689">
        <ele>1134.0124512</ele>
        <time>2012-08-19T08:35:51Z</time>
      </trkpt>
      <trkpt lat="43.98219" lon="7.27686">
        <ele>1134.4931641</ele>
        <time>2012-08-19T08:35:56Z</time>
      </trkpt>
      <trkpt lat="43.98199" lon="7.27676">
        <ele>1137.857666</ele>
        <time>2012-08-19T08:36:13Z</time>
      </trkpt>
      <trkpt lat="43.98174" lon="7.27655">
        <ele>1139.2995605</ele>
        <time>2012-08-19T08:36:35Z</time>
      </trkpt>
      <trkpt lat="43.98159" lon="7.27647">
        <ele>1142.1835938</ele>
        <time>2012-08-19T08:36:48Z</time>
      </trkpt>
      <trkpt lat="43.98152" lon="7.27632">
        <ele>1142.1835938</ele>
        <time>2012-08-19T08:36:57Z</time>
      </trkpt>
      <trkpt lat="43.98121" lon="7.27586">
        <ele>1146.0288086</ele>
        <time>2012-08-19T08:37:22Z</time>
      </trkpt>
      <trkpt lat="43.98078" lon="7.27587">
        <ele>1146.0288086</ele>
        <time>2012-08-19T08:37:35Z</time>
      </trkpt>
      <trkpt lat="43.98051" lon="7.27565">
        <ele>1144.5866699</ele>
        <time>2012-08-19T08:37:49Z</time>
      </trkpt>
      <trkpt lat="43.98023" lon="7.27557">
        <ele>1142.6643066</ele>
        <time>2012-08-19T08:37:59Z</time>
      </trkpt>
      <trkpt lat="43.9802" lon="7.27556">
        <ele>1142.6643066</ele>
        <time>2012-08-19T08:38:01Z</time>
      </trkpt>
      <trkpt lat="43.98015" lon="7.27548">
        <ele>1143.1447754</ele>
        <time>2012-08-19T08:38:05Z</time>
      </trkpt>
      <trkpt lat="43.97996" lon="7.2752">
        <ele>1141.7028809</ele>
        <time>2012-08-19T08:38:18Z</time>
      </trkpt>
      <trkpt lat="43.97987" lon="7.27498">
        <ele>1138.8190918</ele>
        <time>2012-08-19T08:38:23Z</time>
      </trkpt>
      <trkpt lat="43.97969" lon="7.27469">
        <ele>1137.857666</ele>
        <time>2012-08-19T08:38:34Z</time>
      </trkpt>
      <trkpt lat="43.97962" lon="7.27453">
        <ele>1136.4157715</ele>
        <time>2012-08-19T08:38:39Z</time>
      </trkpt>
      <trkpt lat="43.97924" lon="7.27435">
        <ele>1134.973877</ele>
        <time>2012-08-19T08:38:51Z</time>
      </trkpt>
      <trkpt lat="43.97891" lon="7.27425">
        <ele>1131.6088867</ele>
        <time>2012-08-19T08:39:02Z</time>
      </trkpt>
      <trkpt lat="43.97889" lon="7.27424">
        <ele>1131.6088867</ele>
        <time>2012-08-19T08:39:03Z</time>
      </trkpt>
      <trkpt lat="43.97868" lon="7.27407">
        <ele>1128.7250977</ele>
        <time>2012-08-19T08:39:12Z</time>
      </trkpt>
      <trkpt lat="43.9783" lon="7.27411">
        <ele>1125.8410645</ele>
        <time>2012-08-19T08:39:27Z</time>
      </trkpt>
      <trkpt lat="43.97819" lon="7.27411">
        <ele>1125.8410645</ele>
        <time>2012-08-19T08:39:31Z</time>
      </trkpt>
      <trkpt lat="43.97813" lon="7.27417">
        <ele>1124.3991699</ele>
        <time>2012-08-19T08:39:34Z</time>
      </trkpt>
      <trkpt lat="43.97802" lon="7.27422">
        <ele>1120.5539551</ele>
        <time>2012-08-19T08:39:39Z</time>
      </trkpt>
      <trkpt lat="43.97796" lon="7.27422">
        <ele>1120.5539551</ele>
        <time>2012-08-19T08:39:40Z</time>
      </trkpt>
      <trkpt lat="43.97791" lon="7.27425">
        <ele>1119.1120605</ele>
        <time>2012-08-19T08:39:42Z</time>
      </trkpt>
      <trkpt lat="43.97789" lon="7.27424">
        <ele>1118.6313477</ele>
        <time>2012-08-19T08:39:43Z</time>
      </trkpt>
      <trkpt lat="43.97776" lon="7.27428">
        <ele>1116.7087402</ele>
        <time>2012-08-19T08:39:47Z</time>
      </trkpt>
      <trkpt lat="43.97772" lon="7.27434">
        <ele>1115.7473145</ele>
        <time>2012-08-19T08:39:49Z</time>
      </trkpt>
      <trkpt lat="43.97766" lon="7.27443">
        <ele>1114.7858887</ele>
        <time>2012-08-19T08:39:52Z</time>
      </trkpt>
      <trkpt lat="43.9776" lon="7.27456">
        <ele>1111.9020996</ele>
        <time>2012-08-19T08:39:57Z</time>
      </trkpt>
      <trkpt lat="43.97756" lon="7.27461">
        <ele>1110.4599609</ele>
        <time>2012-08-19T08:39:59Z</time>
      </trkpt>
      <trkpt lat="43.9773" lon="7.27484">
        <ele>1108.5373535</ele>
        <time>2012-08-19T08:40:10Z</time>
      </trkpt>
      <trkpt lat="43.97726" lon="7.27487">
        <ele>1109.0180664</ele>
        <time>2012-08-19T08:40:11Z</time>
      </trkpt>
      <trkpt lat="43.97707" lon="7.27506">
        <ele>1107.095459</ele>
        <time>2012-08-19T08:40:20Z</time>
      </trkpt>
      <trkpt lat="43.97685" lon="7.27513">
        <ele>1102.7695313</ele>
        <time>2012-08-19T08:40:27Z</time>
      </trkpt>
      <trkpt lat="43.97678" lon="7.27521">
        <ele>1100.8469238</ele>
        <time>2012-08-19T08:40:31Z</time>
      </trkpt>
      <trkpt lat="43.97674" lon="7.27526">
        <ele>1100.3664551</ele>
        <time>2012-08-19T08:40:33Z</time>
      </trkpt>
      <trkpt lat="43.97667" lon="7.27526">
        <ele>1098.4433594</ele>
        <time>2012-08-19T08:40:35Z</time>
      </trkpt>
      <trkpt lat="43.9765" lon="7.27531">
        <ele>1094.5981445</ele>
        <time>2012-08-19T08:40:43Z</time>
      </trkpt>
      <trkpt lat="43.97648" lon="7.27531">
        <ele>1094.5981445</ele>
        <time>2012-08-19T08:40:44Z</time>
      </trkpt>
      <trkpt lat="43.9764" lon="7.2753">
        <ele>1093.15625</ele>
        <time>2012-08-19T08:40:47Z</time>
      </trkpt>
      <trkpt lat="43.97614" lon="7.2753">
        <ele>1089.791748</ele>
        <time>2012-08-19T08:40:57Z</time>
      </trkpt>
      <trkpt lat="43.97601" lon="7.2753">
        <ele>1086.4272461</ele>
        <time>2012-08-19T08:41:03Z</time>
      </trkpt>
      <trkpt lat="43.97599" lon="7.2753">
        <ele>1087.8691406</ele>
        <time>2012-08-19T08:41:04Z</time>
      </trkpt>
      <trkpt lat="43.97576" lon="7.27529">
        <ele>1084.5046387</ele>
        <time>2012-08-19T08:41:13Z</time>
      </trkpt>
      <trkpt lat="43.97574" lon="7.27527">
        <ele>1084.5046387</ele>
        <time>2012-08-19T08:41:14Z</time>
      </trkpt>
      <trkpt lat="43.97541" lon="7.2752">
        <ele>1083.0622559</ele>
        <time>2012-08-19T08:41:26Z</time>
      </trkpt>
      <trkpt lat="43.97539" lon="7.27525">
        <ele>1082.1010742</ele>
        <time>2012-08-19T08:41:28Z</time>
      </trkpt>
      <trkpt lat="43.97536" lon="7.2753">
        <ele>1081.6203613</ele>
        <time>2012-08-19T08:41:30Z</time>
      </trkpt>
      <trkpt lat="43.97502" lon="7.27559">
        <ele>1078.2558594</ele>
        <time>2012-08-19T08:41:44Z</time>
      </trkpt>
      <trkpt lat="43.975" lon="7.27562">
        <ele>1078.2558594</ele>
        <time>2012-08-19T08:41:45Z</time>
      </trkpt>
      <trkpt lat="43.97489" lon="7.2758">
        <ele>1078.2558594</ele>
        <time>2012-08-19T08:41:52Z</time>
      </trkpt>
      <trkpt lat="43.97465" lon="7.27618">
        <ele>1076.8139648</ele>
        <time>2012-08-19T08:42:06Z</time>
      </trkpt>
      <trkpt lat="43.9746" lon="7.27627">
        <ele>1076.333252</ele>
        <time>2012-08-19T08:42:10Z</time>
      </trkpt>
      <trkpt lat="43.9745" lon="7.27633">
        <ele>1072.4880371</ele>
        <time>2012-08-19T08:42:16Z</time>
      </trkpt>
      <trkpt lat="43.97447" lon="7.27633">
        <ele>1072.96875</ele>
        <time>2012-08-19T08:42:17Z</time>
      </trkpt>
      <trkpt lat="43.97419" lon="7.27672">
        <ele>1071.0461426</ele>
        <time>2012-08-19T08:42:32Z</time>
      </trkpt>
      <trkpt lat="43.97407" lon="7.27699">
        <ele>1070.0847168</ele>
        <time>2012-08-19T08:42:43Z</time>
      </trkpt>
      <trkpt lat="43.97386" lon="7.27695">
        <ele>1071.0461426</ele>
        <time>2012-08-19T08:42:55Z</time>
      </trkpt>
      <trkpt lat="43.97366" lon="7.27682">
        <ele>1072.4880371</ele>
        <time>2012-08-19T08:43:09Z</time>
      </trkpt>
      <trkpt lat="43.97347" lon="7.27678">
        <ele>1072.0073242</ele>
        <time>2012-08-19T08:43:15Z</time>
      </trkpt>
      <trkpt lat="43.97338" lon="7.27676">
        <ele>1072.0073242</ele>
        <time>2012-08-19T08:43:20Z</time>
      </trkpt>
      <trkpt lat="43.9733" lon="7.27667">
        <ele>1071.5266113</ele>
        <time>2012-08-19T08:43:26Z</time>
      </trkpt>
      <trkpt lat="43.97323" lon="7.27639">
        <ele>1074.4106445</ele>
        <time>2012-08-19T08:43:39Z</time>
      </trkpt>
      <trkpt lat="43.97306" lon="7.27615">
        <ele>1077.7751465</ele>
        <time>2012-08-19T08:43:52Z</time>
      </trkpt>
      <trkpt lat="43.97271" lon="7.27615">
        <ele>1080.1784668</ele>
        <time>2012-08-19T08:44:10Z</time>
      </trkpt>
      <trkpt lat="43.97256" lon="7.27622">
        <ele>1080.1784668</ele>
        <time>2012-08-19T08:44:18Z</time>
      </trkpt>
      <trkpt lat="43.97225" lon="7.27619">
        <ele>1078.7365723</ele>
        <time>2012-08-19T08:44:30Z</time>
      </trkpt>
      <trkpt lat="43.97191" lon="7.27626">
        <ele>1077.7751465</ele>
        <time>2012-08-19T08:44:43Z</time>
      </trkpt>
      <trkpt lat="43.97171" lon="7.27618">
        <ele>1076.8139648</ele>
        <time>2012-08-19T08:44:53Z</time>
      </trkpt>
      <trkpt lat="43.9716" lon="7.27584">
        <ele>1077.2946777</ele>
        <time>2012-08-19T08:45:06Z</time>
      </trkpt>
      <trkpt lat="43.97159" lon="7.27573">
        <ele>1075.8525391</ele>
        <time>2012-08-19T08:45:12Z</time>
      </trkpt>
      <trkpt lat="43.97149" lon="7.27567">
        <ele>1075.3718262</ele>
        <time>2012-08-19T08:45:17Z</time>
      </trkpt>
      <trkpt lat="43.97136" lon="7.27548">
        <ele>1072.0073242</ele>
        <time>2012-08-19T08:45:24Z</time>
      </trkpt>
      <trkpt lat="43.97131" lon="7.27545">
        <ele>1071.0461426</ele>
        <time>2012-08-19T08:45:26Z</time>
      </trkpt>
      <trkpt lat="43.97129" lon="7.27538">
        <ele>1069.1235352</ele>
        <time>2012-08-19T08:45:29Z</time>
      </trkpt>
      <trkpt lat="43.97113" lon="7.27515">
        <ele>1065.7587891</ele>
        <time>2012-08-19T08:45:37Z</time>
      </trkpt>
      <trkpt lat="43.97106" lon="7.27509">
        <ele>1064.3166504</ele>
        <time>2012-08-19T08:45:41Z</time>
      </trkpt>
      <trkpt lat="43.97091" lon="7.27486">
        <ele>1060.9521484</ele>
        <time>2012-08-19T08:45:50Z</time>
      </trkpt>
      <trkpt lat="43.97083" lon="7.27466">
        <ele>1057.5876465</ele>
        <time>2012-08-19T08:45:55Z</time>
      </trkpt>
      <trkpt lat="43.97083" lon="7.27462">
        <ele>1057.1069336</ele>
        <time>2012-08-19T08:45:56Z</time>
      </trkpt>
      <trkpt lat="43.97081" lon="7.27456">
        <ele>1056.1455078</ele>
        <time>2012-08-19T08:45:58Z</time>
      </trkpt>
      <trkpt lat="43.9708" lon="7.27452">
        <ele>1055.1843262</ele>
        <time>2012-08-19T08:45:59Z</time>
      </trkpt>
      <trkpt lat="43.97071" lon="7.27437">
        <ele>1052.300293</ele>
        <time>2012-08-19T08:46:06Z</time>
      </trkpt>
      <trkpt lat="43.97064" lon="7.27423">
        <ele>1049.4162598</ele>
        <time>2012-08-19T08:46:12Z</time>
      </trkpt>
      <trkpt lat="43.97063" lon="7.27413">
        <ele>1046.0517578</ele>
        <time>2012-08-19T08:46:17Z</time>
      </trkpt>
      <trkpt lat="43.97055" lon="7.27398">
        <ele>1043.1677246</ele>
        <time>2012-08-19T08:46:23Z</time>
      </trkpt>
      <trkpt lat="43.97052" lon="7.27377">
        <ele>1039.3225098</ele>
        <time>2012-08-19T08:46:29Z</time>
      </trkpt>
      <trkpt lat="43.97051" lon="7.27368">
        <ele>1037.3999023</ele>
        <time>2012-08-19T08:46:31Z</time>
      </trkpt>
      <trkpt lat="43.97044" lon="7.27353">
        <ele>1034.996582</ele>
        <time>2012-08-19T08:46:36Z</time>
      </trkpt>
      <trkpt lat="43.9704" lon="7.27351">
        <ele>1033.0737305</ele>
        <time>2012-08-19T08:46:38Z</time>
      </trkpt>
      <trkpt lat="43.97037" lon="7.27345">
        <ele>1032.1125488</ele>
        <time>2012-08-19T08:46:40Z</time>
      </trkpt>
      <trkpt lat="43.97033" lon="7.27333">
        <ele>1028.7480469</ele>
        <time>2012-08-19T08:46:45Z</time>
      </trkpt>
      <trkpt lat="43.9703" lon="7.2733">
        <ele>1027.3061523</ele>
        <time>2012-08-19T08:46:47Z</time>
      </trkpt>
      <trkpt lat="43.97024" lon="7.27322">
        <ele>1025.3833008</ele>
        <time>2012-08-19T08:46:51Z</time>
      </trkpt>
      <trkpt lat="43.97016" lon="7.2731">
        <ele>1022.0187988</ele>
        <time>2012-08-19T08:46:57Z</time>
      </trkpt>
      <trkpt lat="43.97008" lon="7.27291">
        <ele>1020.0961914</ele>
        <time>2012-08-19T08:47:03Z</time>
      </trkpt>
      <trkpt lat="43.97008" lon="7.27289">
        <ele>1018.6540527</ele>
        <time>2012-08-19T08:47:04Z</time>
      </trkpt>
      <trkpt lat="43.9701" lon="7.2728">
        <ele>1016.2507324</ele>
        <time>2012-08-19T08:47:09Z</time>
      </trkpt>
      <trkpt lat="43.9701" lon="7.27271">
        <ele>1014.328125</ele>
        <time>2012-08-19T08:47:13Z</time>
      </trkpt>
      <trkpt lat="43.97009" lon="7.27268">
        <ele>1013.3669434</ele>
        <time>2012-08-19T08:47:14Z</time>
      </trkpt>
      <trkpt lat="43.97008" lon="7.27261">
        <ele>1012.4055176</ele>
        <time>2012-08-19T08:47:16Z</time>
      </trkpt>
      <trkpt lat="43.97009" lon="7.27256">
        <ele>1011.4443359</ele>
        <time>2012-08-19T08:47:18Z</time>
      </trkpt>
      <trkpt lat="43.97008" lon="7.27247">
        <ele>1010.0021973</ele>
        <time>2012-08-19T08:47:20Z</time>
      </trkpt>
      <trkpt lat="43.97011" lon="7.27235">
        <ele>1009.0410156</ele>
        <time>2012-08-19T08:47:23Z</time>
      </trkpt>
      <trkpt lat="43.97" lon="7.27225">
        <ele>1005.6765137</ele>
        <time>2012-08-19T08:47:29Z</time>
      </trkpt>
      <trkpt lat="43.96993" lon="7.27219">
        <ele>1002.3115234</ele>
        <time>2012-08-19T08:47:33Z</time>
      </trkpt>
      <trkpt lat="43.96992" lon="7.27217">
        <ele>1002.3115234</ele>
        <time>2012-08-19T08:47:34Z</time>
      </trkpt>
      <trkpt lat="43.9699" lon="7.27216">
        <ele>1000.8696289</ele>
        <time>2012-08-19T08:47:35Z</time>
      </trkpt>
      <trkpt lat="43.96978" lon="7.27213">
        <ele>997.505127</ele>
        <time>2012-08-19T08:47:41Z</time>
      </trkpt>
      <trkpt lat="43.96976" lon="7.2721">
        <ele>997.505127</ele>
        <time>2012-08-19T08:47:42Z</time>
      </trkpt>
      <trkpt lat="43.9697" lon="7.27203">
        <ele>996.5439453</ele>
        <time>2012-08-19T08:47:46Z</time>
      </trkpt>
      <trkpt lat="43.96968" lon="7.27199">
        <ele>994.6210938</ele>
        <time>2012-08-19T08:47:48Z</time>
      </trkpt>
      <trkpt lat="43.96962" lon="7.27199">
        <ele>992.2180176</ele>
        <time>2012-08-19T08:47:52Z</time>
      </trkpt>
      <trkpt lat="43.96961" lon="7.27191">
        <ele>989.3339844</ele>
        <time>2012-08-19T08:47:59Z</time>
      </trkpt>
      <trkpt lat="43.96961" lon="7.2719">
        <ele>989.3339844</ele>
        <time>2012-08-19T08:48:00Z</time>
      </trkpt>
      <trkpt lat="43.9696" lon="7.27185">
        <ele>987.4111328</ele>
        <time>2012-08-19T08:48:04Z</time>
      </trkpt>
      <trkpt lat="43.96956" lon="7.27185">
        <ele>985.9692383</ele>
        <time>2012-08-19T08:48:07Z</time>
      </trkpt>
      <trkpt lat="43.96954" lon="7.27184">
        <ele>984.0466309</ele>
        <time>2012-08-19T08:48:11Z</time>
      </trkpt>
      <trkpt lat="43.96948" lon="7.27183">
        <ele>983.0852051</ele>
        <time>2012-08-19T08:48:14Z</time>
      </trkpt>
      <trkpt lat="43.96947" lon="7.27177">
        <ele>980.6821289</ele>
        <time>2012-08-19T08:48:18Z</time>
      </trkpt>
      <trkpt lat="43.96945" lon="7.27179">
        <ele>979.2399902</ele>
        <time>2012-08-19T08:48:20Z</time>
      </trkpt>
      <trkpt lat="43.96944" lon="7.27179">
        <ele>979.2399902</ele>
        <time>2012-08-19T08:48:22Z</time>
      </trkpt>
      <trkpt lat="43.96942" lon="7.27177">
        <ele>977.7980957</ele>
        <time>2012-08-19T08:48:26Z</time>
      </trkpt>
      <trkpt lat="43.96938" lon="7.27177">
        <ele>976.3562012</ele>
        <time>2012-08-19T08:48:28Z</time>
      </trkpt>
      <trkpt lat="43.96931" lon="7.27166">
        <ele>974.4335938</ele>
        <time>2012-08-19T08:48:34Z</time>
      </trkpt>
      <trkpt lat="43.96924" lon="7.27164">
        <ele>972.0302734</ele>
        <time>2012-08-19T08:48:38Z</time>
      </trkpt>
      <trkpt lat="43.96922" lon="7.27169">
        <ele>970.1074219</ele>
        <time>2012-08-19T08:48:43Z</time>
      </trkpt>
      <trkpt lat="43.96914" lon="7.27156">
        <ele>967.7041016</ele>
        <time>2012-08-19T08:48:48Z</time>
      </trkpt>
      <trkpt lat="43.96899" lon="7.2716">
        <ele>962.4169922</ele>
        <time>2012-08-19T08:48:58Z</time>
      </trkpt>
      <trkpt lat="43.96897" lon="7.27153">
        <ele>960.9750977</ele>
        <time>2012-08-19T08:49:01Z</time>
      </trkpt>
      <trkpt lat="43.96894" lon="7.27148">
        <ele>960.4943848</ele>
        <time>2012-08-19T08:49:03Z</time>
      </trkpt>
      <trkpt lat="43.9689" lon="7.27143">
        <ele>958.5717773</ele>
        <time>2012-08-19T08:49:06Z</time>
      </trkpt>
      <trkpt lat="43.96889" lon="7.27135">
        <ele>957.1298828</ele>
        <time>2012-08-19T08:49:10Z</time>
      </trkpt>
      <trkpt lat="43.96889" lon="7.27131">
        <ele>956.168457</ele>
        <time>2012-08-19T08:49:12Z</time>
      </trkpt>
      <trkpt lat="43.96882" lon="7.27129">
        <ele>953.7651367</ele>
        <time>2012-08-19T08:49:17Z</time>
      </trkpt>
      <trkpt lat="43.96881" lon="7.27129">
        <ele>952.8037109</ele>
        <time>2012-08-19T08:49:18Z</time>
      </trkpt>
      <trkpt lat="43.96851" lon="7.27125">
        <ele>948.9584961</ele>
        <time>2012-08-19T08:49:30Z</time>
      </trkpt>
      <trkpt lat="43.96842" lon="7.27123">
        <ele>948.4777832</ele>
        <time>2012-08-19T08:49:34Z</time>
      </trkpt>
      <trkpt lat="43.96828" lon="7.2712">
        <ele>946.074707</ele>
        <time>2012-08-19T08:49:40Z</time>
      </trkpt>
      <trkpt lat="43.96824" lon="7.27139">
        <ele>943.6713867</ele>
        <time>2012-08-19T08:49:48Z</time>
      </trkpt>
      <trkpt lat="43.96817" lon="7.27142">
        <ele>941.2680664</ele>
        <time>2012-08-19T08:49:53Z</time>
      </trkpt>
      <trkpt lat="43.96803" lon="7.27147">
        <ele>937.9033203</ele>
        <time>2012-08-19T08:50:01Z</time>
      </trkpt>
      <trkpt lat="43.96798" lon="7.2715">
        <ele>936.4614258</ele>
        <time>2012-08-19T08:50:04Z</time>
      </trkpt>
      <trkpt lat="43.96792" lon="7.27152">
        <ele>935.9807129</ele>
        <time>2012-08-19T08:50:06Z</time>
      </trkpt>
      <trkpt lat="43.96785" lon="7.27154">
        <ele>934.0581055</ele>
        <time>2012-08-19T08:50:09Z</time>
      </trkpt>
      <trkpt lat="43.96771" lon="7.27157">
        <ele>931.6547852</ele>
        <time>2012-08-19T08:50:15Z</time>
      </trkpt>
      <trkpt lat="43.96754" lon="7.27165">
        <ele>928.2902832</ele>
        <time>2012-08-19T08:50:24Z</time>
      </trkpt>
      <trkpt lat="43.96737" lon="7.27169">
        <ele>923.9641113</ele>
        <time>2012-08-19T08:50:33Z</time>
      </trkpt>
      <trkpt lat="43.96734" lon="7.2717">
        <ele>923.9641113</ele>
        <time>2012-08-19T08:50:34Z</time>
      </trkpt>
      <trkpt lat="43.96726" lon="7.27176">
        <ele>922.5222168</ele>
        <time>2012-08-19T08:50:44Z</time>
      </trkpt>
      <trkpt lat="43.96711" lon="7.27212">
        <ele>920.5996094</ele>
        <time>2012-08-19T08:50:56Z</time>
      </trkpt>
      <trkpt lat="43.96688" lon="7.27229">
        <ele>918.1962891</ele>
        <time>2012-08-19T08:51:07Z</time>
      </trkpt>
      <trkpt lat="43.96666" lon="7.2726">
        <ele>915.7932129</ele>
        <time>2012-08-19T08:51:19Z</time>
      </trkpt>
      <trkpt lat="43.9666" lon="7.27285">
        <ele>912.4284668</ele>
        <time>2012-08-19T08:51:28Z</time>
      </trkpt>
      <trkpt lat="43.96648" lon="7.27317">
        <ele>910.5058594</ele>
        <time>2012-08-19T08:51:40Z</time>
      </trkpt>
      <trkpt lat="43.96621" lon="7.27364">
        <ele>907.1411133</ele>
        <time>2012-08-19T08:51:50Z</time>
      </trkpt>
      <trkpt lat="43.96603" lon="7.27385">
        <ele>903.7766113</ele>
        <time>2012-08-19T08:51:59Z</time>
      </trkpt>
      <trkpt lat="43.96601" lon="7.2739">
        <ele>902.8151855</ele>
        <time>2012-08-19T08:52:01Z</time>
      </trkpt>
      <trkpt lat="43.966" lon="7.27409">
        <ele>901.8540039</ele>
        <time>2012-08-19T08:52:06Z</time>
      </trkpt>
      <trkpt lat="43.96605" lon="7.27461">
        <ele>898.9699707</ele>
        <time>2012-08-19T08:52:20Z</time>
      </trkpt>
      <trkpt lat="43.96606" lon="7.27499">
        <ele>896.0861816</ele>
        <time>2012-08-19T08:52:28Z</time>
      </trkpt>
      <trkpt lat="43.96591" lon="7.27545">
        <ele>894.1635742</ele>
        <time>2012-08-19T08:52:40Z</time>
      </trkpt>
      <trkpt lat="43.96583" lon="7.27559">
        <ele>891.7600098</ele>
        <time>2012-08-19T08:52:44Z</time>
      </trkpt>
      <trkpt lat="43.9658" lon="7.27579">
        <ele>891.2792969</ele>
        <time>2012-08-19T08:52:49Z</time>
      </trkpt>
      <trkpt lat="43.96583" lon="7.27628">
        <ele>888.3955078</ele>
        <time>2012-08-19T08:53:00Z</time>
      </trkpt>
      <trkpt lat="43.9657" lon="7.27657">
        <ele>887.9147949</ele>
        <time>2012-08-19T08:53:10Z</time>
      </trkpt>
      <trkpt lat="43.96564" lon="7.27673">
        <ele>886.9533691</ele>
        <time>2012-08-19T08:53:18Z</time>
      </trkpt>
      <trkpt lat="43.96555" lon="7.27689">
        <ele>888.3955078</ele>
        <time>2012-08-19T08:53:28Z</time>
      </trkpt>
      <trkpt lat="43.96554" lon="7.27694">
        <ele>889.8374023</ele>
        <time>2012-08-19T08:53:32Z</time>
      </trkpt>
      <trkpt lat="43.96552" lon="7.27697">
        <ele>890.3181152</ele>
        <time>2012-08-19T08:53:34Z</time>
      </trkpt>
      <trkpt lat="43.96542" lon="7.2774">
        <ele>889.3566895</ele>
        <time>2012-08-19T08:53:49Z</time>
      </trkpt>
      <trkpt lat="43.96537" lon="7.27775">
        <ele>887.9147949</ele>
        <time>2012-08-19T08:53:57Z</time>
      </trkpt>
      <trkpt lat="43.9654" lon="7.2779">
        <ele>886.4729004</ele>
        <time>2012-08-19T08:54:02Z</time>
      </trkpt>
      <trkpt lat="43.96537" lon="7.27798">
        <ele>886.9533691</ele>
        <time>2012-08-19T08:54:05Z</time>
      </trkpt>
      <trkpt lat="43.96528" lon="7.27804">
        <ele>887.434082</ele>
        <time>2012-08-19T08:54:10Z</time>
      </trkpt>
      <trkpt lat="43.96517" lon="7.27815">
        <ele>884.0695801</ele>
        <time>2012-08-19T08:54:19Z</time>
      </trkpt>
      <trkpt lat="43.96502" lon="7.27812">
        <ele>880.7050781</ele>
        <time>2012-08-19T08:54:26Z</time>
      </trkpt>
      <trkpt lat="43.96497" lon="7.27816">
        <ele>879.7436523</ele>
        <time>2012-08-19T08:54:29Z</time>
      </trkpt>
      <trkpt lat="43.96497" lon="7.27825">
        <ele>878.7824707</ele>
        <time>2012-08-19T08:54:33Z</time>
      </trkpt>
      <trkpt lat="43.96489" lon="7.2784">
        <ele>877.8210449</ele>
        <time>2012-08-19T08:54:39Z</time>
      </trkpt>
      <trkpt lat="43.9648" lon="7.27846">
        <ele>875.8981934</ele>
        <time>2012-08-19T08:54:43Z</time>
      </trkpt>
      <trkpt lat="43.96467" lon="7.27861">
        <ele>873.0144043</ele>
        <time>2012-08-19T08:54:52Z</time>
      </trkpt>
      <trkpt lat="43.9645" lon="7.27888">
        <ele>871.5722656</ele>
        <time>2012-08-19T08:55:03Z</time>
      </trkpt>
      <trkpt lat="43.96441" lon="7.27928">
        <ele>869.6499023</ele>
        <time>2012-08-19T08:55:17Z</time>
      </trkpt>
      <trkpt lat="43.96433" lon="7.27961">
        <ele>866.2851563</ele>
        <time>2012-08-19T08:55:29Z</time>
      </trkpt>
      <trkpt lat="43.96428" lon="7.27978">
        <ele>864.8432617</ele>
        <time>2012-08-19T08:55:37Z</time>
      </trkpt>
      <trkpt lat="43.96427" lon="7.27983">
        <ele>863.8818359</ele>
        <time>2012-08-19T08:55:40Z</time>
      </trkpt>
      <trkpt lat="43.96425" lon="7.2799">
        <ele>860.517334</ele>
        <time>2012-08-19T08:55:44Z</time>
      </trkpt>
      <trkpt lat="43.96423" lon="7.27993">
        <ele>860.517334</ele>
        <time>2012-08-19T08:55:45Z</time>
      </trkpt>
      <trkpt lat="43.96422" lon="7.27994">
        <ele>860.0366211</ele>
        <time>2012-08-19T08:55:46Z</time>
      </trkpt>
      <trkpt lat="43.96423" lon="7.28001">
        <ele>857.6333008</ele>
        <time>2012-08-19T08:55:51Z</time>
      </trkpt>
      <trkpt lat="43.96422" lon="7.28012">
        <ele>856.1911621</ele>
        <time>2012-08-19T08:56:06Z</time>
      </trkpt>
      <trkpt lat="43.96417" lon="7.28014">
        <ele>854.2687988</ele>
        <time>2012-08-19T08:56:58Z</time>
      </trkpt>
      <trkpt lat="43.96392" lon="7.28018">
        <ele>852.8266602</ele>
        <time>2012-08-19T08:57:08Z</time>
      </trkpt>
      <trkpt lat="43.96368" lon="7.2806">
        <ele>851.8654785</ele>
        <time>2012-08-19T08:57:23Z</time>
      </trkpt>
      <trkpt lat="43.96379" lon="7.28103">
        <ele>851.3847656</ele>
        <time>2012-08-19T08:57:36Z</time>
      </trkpt>
      <trkpt lat="43.96389" lon="7.28142">
        <ele>851.3847656</ele>
        <time>2012-08-19T08:57:48Z</time>
      </trkpt>
      <trkpt lat="43.96387" lon="7.28193">
        <ele>850.423584</ele>
        <time>2012-08-19T08:58:02Z</time>
      </trkpt>
      <trkpt lat="43.96365" lon="7.28232">
        <ele>849.4621582</ele>
        <time>2012-08-19T08:58:14Z</time>
      </trkpt>
      <trkpt lat="43.96335" lon="7.28275">
        <ele>847.5395508</ele>
        <time>2012-08-19T08:58:29Z</time>
      </trkpt>
      <trkpt lat="43.96312" lon="7.28304">
        <ele>844.1750488</ele>
        <time>2012-08-19T08:58:39Z</time>
      </trkpt>
      <trkpt lat="43.963" lon="7.28319">
        <ele>842.2521973</ele>
        <time>2012-08-19T08:58:43Z</time>
      </trkpt>
      <trkpt lat="43.96274" lon="7.28317">
        <ele>838.8876953</ele>
        <time>2012-08-19T08:58:51Z</time>
      </trkpt>
      <trkpt lat="43.96258" lon="7.28301">
        <ele>838.4069824</ele>
        <time>2012-08-19T08:58:57Z</time>
      </trkpt>
      <trkpt lat="43.96227" lon="7.28301">
        <ele>835.5229492</ele>
        <time>2012-08-19T08:59:10Z</time>
      </trkpt>
      <trkpt lat="43.96224" lon="7.283">
        <ele>835.0424805</ele>
        <time>2012-08-19T08:59:11Z</time>
      </trkpt>
      <trkpt lat="43.96217" lon="7.28306">
        <ele>833.1196289</ele>
        <time>2012-08-19T08:59:14Z</time>
      </trkpt>
      <trkpt lat="43.96212" lon="7.28309">
        <ele>832.6391602</ele>
        <time>2012-08-19T08:59:16Z</time>
      </trkpt>
      <trkpt lat="43.962" lon="7.2831">
        <ele>828.7939453</ele>
        <time>2012-08-19T08:59:21Z</time>
      </trkpt>
      <trkpt lat="43.96197" lon="7.2831">
        <ele>829.755127</ele>
        <time>2012-08-19T08:59:22Z</time>
      </trkpt>
      <trkpt lat="43.96172" lon="7.2832">
        <ele>825.909668</ele>
        <time>2012-08-19T08:59:31Z</time>
      </trkpt>
      <trkpt lat="43.9617" lon="7.2832">
        <ele>825.909668</ele>
        <time>2012-08-19T08:59:32Z</time>
      </trkpt>
      <trkpt lat="43.96152" lon="7.28333">
        <ele>822.0644531</ele>
        <time>2012-08-19T08:59:40Z</time>
      </trkpt>
      <trkpt lat="43.96149" lon="7.28336">
        <ele>822.545166</ele>
        <time>2012-08-19T08:59:41Z</time>
      </trkpt>
      <trkpt lat="43.96142" lon="7.28345">
        <ele>821.5837402</ele>
        <time>2012-08-19T08:59:46Z</time>
      </trkpt>
      <trkpt lat="43.96144" lon="7.2836">
        <ele>819.661377</ele>
        <time>2012-08-19T08:59:51Z</time>
      </trkpt>
      <trkpt lat="43.9615" lon="7.28376">
        <ele>818.6999512</ele>
        <time>2012-08-19T08:59:56Z</time>
      </trkpt>
      <trkpt lat="43.96152" lon="7.28398">
        <ele>816.2966309</ele>
        <time>2012-08-19T09:00:03Z</time>
      </trkpt>
      <trkpt lat="43.96154" lon="7.28405">
        <ele>815.3354492</ele>
        <time>2012-08-19T09:00:05Z</time>
      </trkpt>
      <trkpt lat="43.96147" lon="7.28426">
        <ele>813.8933105</ele>
        <time>2012-08-19T09:00:10Z</time>
      </trkpt>
      <trkpt lat="43.96139" lon="7.28429">
        <ele>811.9707031</ele>
        <time>2012-08-19T09:00:13Z</time>
      </trkpt>
      <trkpt lat="43.96137" lon="7.28429">
        <ele>811.0092773</ele>
        <time>2012-08-19T09:00:14Z</time>
      </trkpt>
      <trkpt lat="43.96126" lon="7.28456">
        <ele>807.1640625</ele>
        <time>2012-08-19T09:00:24Z</time>
      </trkpt>
      <trkpt lat="43.96115" lon="7.28481">
        <ele>803.3188477</ele>
        <time>2012-08-19T09:00:34Z</time>
      </trkpt>
      <trkpt lat="43.96113" lon="7.28483">
        <ele>803.7995605</ele>
        <time>2012-08-19T09:00:35Z</time>
      </trkpt>
      <trkpt lat="43.96111" lon="7.28518">
        <ele>800.4350586</ele>
        <time>2012-08-19T09:00:44Z</time>
      </trkpt>
      <trkpt lat="43.96117" lon="7.28531">
        <ele>800.4350586</ele>
        <time>2012-08-19T09:00:48Z</time>
      </trkpt>
      <trkpt lat="43.96118" lon="7.28543">
        <ele>798.9929199</ele>
        <time>2012-08-19T09:00:52Z</time>
      </trkpt>
      <trkpt lat="43.9612" lon="7.2855">
        <ele>798.9929199</ele>
        <time>2012-08-19T09:00:54Z</time>
      </trkpt>
      <trkpt lat="43.96144" lon="7.28579">
        <ele>798.0317383</ele>
        <time>2012-08-19T09:01:06Z</time>
      </trkpt>
      <trkpt lat="43.96142" lon="7.28586">
        <ele>796.1091309</ele>
        <time>2012-08-19T09:01:09Z</time>
      </trkpt>
      <trkpt lat="43.96142" lon="7.28591">
        <ele>795.6281738</ele>
        <time>2012-08-19T09:01:11Z</time>
      </trkpt>
      <trkpt lat="43.96143" lon="7.28613">
        <ele>794.666748</ele>
        <time>2012-08-19T09:01:18Z</time>
      </trkpt>
      <trkpt lat="43.96142" lon="7.28617">
        <ele>793.7055664</ele>
        <time>2012-08-19T09:01:20Z</time>
      </trkpt>
      <trkpt lat="43.9615" lon="7.28636">
        <ele>791.3022461</ele>
        <time>2012-08-19T09:01:25Z</time>
      </trkpt>
      <trkpt lat="43.96154" lon="7.28642">
        <ele>789.8603516</ele>
        <time>2012-08-19T09:01:27Z</time>
      </trkpt>
      <trkpt lat="43.96151" lon="7.28666">
        <ele>787.4570313</ele>
        <time>2012-08-19T09:01:34Z</time>
      </trkpt>
      <trkpt lat="43.96149" lon="7.28681">
        <ele>785.5344238</ele>
        <time>2012-08-19T09:01:39Z</time>
      </trkpt>
      <trkpt lat="43.96147" lon="7.2869">
        <ele>783.6118164</ele>
        <time>2012-08-19T09:01:43Z</time>
      </trkpt>
      <trkpt lat="43.96144" lon="7.28698">
        <ele>781.689209</ele>
        <time>2012-08-19T09:01:46Z</time>
      </trkpt>
      <trkpt lat="43.96139" lon="7.28713">
        <ele>778.3244629</ele>
        <time>2012-08-19T09:01:51Z</time>
      </trkpt>
      <trkpt lat="43.96142" lon="7.28722">
        <ele>777.3632813</ele>
        <time>2012-08-19T09:01:54Z</time>
      </trkpt>
      <trkpt lat="43.96136" lon="7.2873">
        <ele>773.9985352</ele>
        <time>2012-08-19T09:02:00Z</time>
      </trkpt>
      <trkpt lat="43.96136" lon="7.28737">
        <ele>772.0759277</ele>
        <time>2012-08-19T09:02:04Z</time>
      </trkpt>
      <trkpt lat="43.96138" lon="7.28748">
        <ele>768.2307129</ele>
        <time>2012-08-19T09:02:08Z</time>
      </trkpt>
      <trkpt lat="43.96139" lon="7.28752">
        <ele>768.2307129</ele>
        <time>2012-08-19T09:02:09Z</time>
      </trkpt>
      <trkpt lat="43.96142" lon="7.2876">
        <ele>765.8276367</ele>
        <time>2012-08-19T09:02:12Z</time>
      </trkpt>
      <trkpt lat="43.96145" lon="7.28764">
        <ele>765.3469238</ele>
        <time>2012-08-19T09:02:14Z</time>
      </trkpt>
      <trkpt lat="43.96139" lon="7.28773">
        <ele>762.4626465</ele>
        <time>2012-08-19T09:02:19Z</time>
      </trkpt>
      <trkpt lat="43.96137" lon="7.28782">
        <ele>759.5788574</ele>
        <time>2012-08-19T09:02:23Z</time>
      </trkpt>
      <trkpt lat="43.9614" lon="7.28786">
        <ele>759.0981445</ele>
        <time>2012-08-19T09:02:25Z</time>
      </trkpt>
      <trkpt lat="43.96144" lon="7.28798">
        <ele>755.7336426</ele>
        <time>2012-08-19T09:02:30Z</time>
      </trkpt>
      <trkpt lat="43.96146" lon="7.28804">
        <ele>754.291748</ele>
        <time>2012-08-19T09:02:33Z</time>
      </trkpt>
      <trkpt lat="43.96144" lon="7.28809">
        <ele>752.8496094</ele>
        <time>2012-08-19T09:02:37Z</time>
      </trkpt>
      <trkpt lat="43.96148" lon="7.28814">
        <ele>749.4851074</ele>
        <time>2012-08-19T09:02:43Z</time>
      </trkpt>
      <trkpt lat="43.96155" lon="7.2882">
        <ele>746.6010742</ele>
        <time>2012-08-19T09:02:48Z</time>
      </trkpt>
      <trkpt lat="43.96152" lon="7.28827">
        <ele>745.1589355</ele>
        <time>2012-08-19T09:02:51Z</time>
      </trkpt>
      <trkpt lat="43.96148" lon="7.28833">
        <ele>743.2363281</ele>
        <time>2012-08-19T09:02:55Z</time>
      </trkpt>
      <trkpt lat="43.96144" lon="7.28835">
        <ele>741.3137207</ele>
        <time>2012-08-19T09:02:58Z</time>
      </trkpt>
      <trkpt lat="43.96138" lon="7.28837">
        <ele>739.3911133</ele>
        <time>2012-08-19T09:03:02Z</time>
      </trkpt>
      <trkpt lat="43.96127" lon="7.28841">
        <ele>736.5073242</ele>
        <time>2012-08-19T09:03:09Z</time>
      </trkpt>
      <trkpt lat="43.96118" lon="7.28843">
        <ele>734.1040039</ele>
        <time>2012-08-19T09:03:13Z</time>
      </trkpt>
      <trkpt lat="43.96109" lon="7.28844">
        <ele>731.2199707</ele>
        <time>2012-08-19T09:03:18Z</time>
      </trkpt>
      <trkpt lat="43.96108" lon="7.28847">
        <ele>729.777832</ele>
        <time>2012-08-19T09:03:20Z</time>
      </trkpt>
      <trkpt lat="43.96107" lon="7.28849">
        <ele>728.3359375</ele>
        <time>2012-08-19T09:03:23Z</time>
      </trkpt>
      <trkpt lat="43.96097" lon="7.28838">
        <ele>724.4907227</ele>
        <time>2012-08-19T09:03:29Z</time>
      </trkpt>
      <trkpt lat="43.96092" lon="7.2884">
        <ele>722.0874023</ele>
        <time>2012-08-19T09:03:34Z</time>
      </trkpt>
      <trkpt lat="43.96091" lon="7.2884">
        <ele>721.1262207</ele>
        <time>2012-08-19T09:03:36Z</time>
      </trkpt>
      <trkpt lat="43.96077" lon="7.28833">
        <ele>717.2810059</ele>
        <time>2012-08-19T09:03:44Z</time>
      </trkpt>
      <trkpt lat="43.96075" lon="7.28838">
        <ele>716.3195801</ele>
        <time>2012-08-19T09:03:47Z</time>
      </trkpt>
      <trkpt lat="43.96076" lon="7.28845">
        <ele>713.9160156</ele>
        <time>2012-08-19T09:03:50Z</time>
      </trkpt>
      <trkpt lat="43.96076" lon="7.28844">
        <ele>713.9160156</ele>
        <time>2012-08-19T09:03:51Z</time>
      </trkpt>
      <trkpt lat="43.96072" lon="7.28845">
        <ele>711.9936523</ele>
        <time>2012-08-19T09:03:55Z</time>
      </trkpt>
      <trkpt lat="43.96072" lon="7.28856">
        <ele>709.1096191</ele>
        <time>2012-08-19T09:04:00Z</time>
      </trkpt>
      <trkpt lat="43.96071" lon="7.28856">
        <ele>709.1096191</ele>
        <time>2012-08-19T09:04:01Z</time>
      </trkpt>
      <trkpt lat="43.96066" lon="7.28846">
        <ele>706.7062988</ele>
        <time>2012-08-19T09:04:06Z</time>
      </trkpt>
      <trkpt lat="43.96059" lon="7.28844">
        <ele>702.861084</ele>
        <time>2012-08-19T09:04:12Z</time>
      </trkpt>
      <trkpt lat="43.96057" lon="7.28841">
        <ele>701.8999023</ele>
        <time>2012-08-19T09:04:14Z</time>
      </trkpt>
      <trkpt lat="43.96049" lon="7.28836">
        <ele>698.5349121</ele>
        <time>2012-08-19T09:04:18Z</time>
      </trkpt>
      <trkpt lat="43.96048" lon="7.28833">
        <ele>697.5737305</ele>
        <time>2012-08-19T09:04:19Z</time>
      </trkpt>
      <trkpt lat="43.96047" lon="7.2882">
        <ele>697.5737305</ele>
        <time>2012-08-19T09:04:23Z</time>
      </trkpt>
      <trkpt lat="43.96038" lon="7.28797">
        <ele>696.6125488</ele>
        <time>2012-08-19T09:04:33Z</time>
      </trkpt>
      <trkpt lat="43.96035" lon="7.28774">
        <ele>694.6896973</ele>
        <time>2012-08-19T09:04:42Z</time>
      </trkpt>
      <trkpt lat="43.96042" lon="7.28757">
        <ele>691.3251953</ele>
        <time>2012-08-19T09:04:49Z</time>
      </trkpt>
      <trkpt lat="43.96045" lon="7.2875">
        <ele>689.8833008</ele>
        <time>2012-08-19T09:04:54Z</time>
      </trkpt>
      <trkpt lat="43.96048" lon="7.28742">
        <ele>687.4799805</ele>
        <time>2012-08-19T09:04:59Z</time>
      </trkpt>
      <trkpt lat="43.96038" lon="7.28732">
        <ele>685.0769043</ele>
        <time>2012-08-19T09:05:06Z</time>
      </trkpt>
      <trkpt lat="43.96039" lon="7.28731">
        <ele>684.1154785</ele>
        <time>2012-08-19T09:05:08Z</time>
      </trkpt>
      <trkpt lat="43.96042" lon="7.28733">
        <ele>683.1538086</ele>
        <time>2012-08-19T09:05:10Z</time>
      </trkpt>
      <trkpt lat="43.9603" lon="7.28748">
        <ele>679.3085938</ele>
        <time>2012-08-19T09:05:19Z</time>
      </trkpt>
      <trkpt lat="43.96026" lon="7.28747">
        <ele>677.3862305</ele>
        <time>2012-08-19T09:05:23Z</time>
      </trkpt>
      <trkpt lat="43.96002" lon="7.28759">
        <ele>674.9829102</ele>
        <time>2012-08-19T09:05:34Z</time>
      </trkpt>
      <trkpt lat="43.95996" lon="7.28768">
        <ele>671.6181641</ele>
        <time>2012-08-19T09:05:39Z</time>
      </trkpt>
      <trkpt lat="43.9599" lon="7.2877">
        <ele>672.098877</ele>
        <time>2012-08-19T09:05:42Z</time>
      </trkpt>
      <trkpt lat="43.95958" lon="7.28777">
        <ele>671.1376953</ele>
        <time>2012-08-19T09:05:54Z</time>
      </trkpt>
      <trkpt lat="43.95937" lon="7.28796">
        <ele>671.1376953</ele>
        <time>2012-08-19T09:06:02Z</time>
      </trkpt>
      <trkpt lat="43.9593" lon="7.28794">
        <ele>668.734375</ele>
        <time>2012-08-19T09:06:06Z</time>
      </trkpt>
      <trkpt lat="43.95907" lon="7.28789">
        <ele>666.8115234</ele>
        <time>2012-08-19T09:06:17Z</time>
      </trkpt>
      <trkpt lat="43.95903" lon="7.2879">
        <ele>665.8503418</ele>
        <time>2012-08-19T09:06:19Z</time>
      </trkpt>
      <trkpt lat="43.95888" lon="7.28791">
        <ele>665.3696289</ele>
        <time>2012-08-19T09:06:31Z</time>
      </trkpt>
      <trkpt lat="43.95862" lon="7.28786">
        <ele>664.888916</ele>
        <time>2012-08-19T09:06:37Z</time>
      </trkpt>
      <trkpt lat="43.95855" lon="7.28771">
        <ele>662.9663086</ele>
        <time>2012-08-19T09:06:42Z</time>
      </trkpt>
      <trkpt lat="43.95854" lon="7.28766">
        <ele>660.5629883</ele>
        <time>2012-08-19T09:06:45Z</time>
      </trkpt>
      <trkpt lat="43.95852" lon="7.28762">
        <ele>659.1210938</ele>
        <time>2012-08-19T09:06:47Z</time>
      </trkpt>
      <trkpt lat="43.9585" lon="7.28757">
        <ele>658.1599121</ele>
        <time>2012-08-19T09:06:49Z</time>
      </trkpt>
      <trkpt lat="43.95847" lon="7.28753">
        <ele>657.1984863</ele>
        <time>2012-08-19T09:06:52Z</time>
      </trkpt>
      <trkpt lat="43.95848" lon="7.28739">
        <ele>654.795166</ele>
        <time>2012-08-19T09:06:57Z</time>
      </trkpt>
      <trkpt lat="43.95846" lon="7.28734">
        <ele>653.8339844</ele>
        <time>2012-08-19T09:06:59Z</time>
      </trkpt>
      <trkpt lat="43.95845" lon="7.28723">
        <ele>650.4692383</ele>
        <time>2012-08-19T09:07:03Z</time>
      </trkpt>
      <trkpt lat="43.95845" lon="7.28718">
        <ele>649.5078125</ele>
        <time>2012-08-19T09:07:05Z</time>
      </trkpt>
      <trkpt lat="43.95841" lon="7.28693">
        <ele>646.6240234</ele>
        <time>2012-08-19T09:07:12Z</time>
      </trkpt>
      <trkpt lat="43.9584" lon="7.28668">
        <ele>643.2592773</ele>
        <time>2012-08-19T09:07:20Z</time>
      </trkpt>
      <trkpt lat="43.95846" lon="7.28641">
        <ele>640.3754883</ele>
        <time>2012-08-19T09:07:30Z</time>
      </trkpt>
      <trkpt lat="43.9585" lon="7.28613">
        <ele>637.4914551</ele>
        <time>2012-08-19T09:07:40Z</time>
      </trkpt>
      <trkpt lat="43.95859" lon="7.28586">
        <ele>634.6074219</ele>
        <time>2012-08-19T09:07:49Z</time>
      </trkpt>
      <trkpt lat="43.95875" lon="7.2856">
        <ele>633.1652832</ele>
        <time>2012-08-19T09:08:01Z</time>
      </trkpt>
      <trkpt lat="43.95887" lon="7.28533">
        <ele>631.7233887</ele>
        <time>2012-08-19T09:08:10Z</time>
      </trkpt>
      <trkpt lat="43.95896" lon="7.28525">
        <ele>632.2041016</ele>
        <time>2012-08-19T09:08:15Z</time>
      </trkpt>
      <trkpt lat="43.95899" lon="7.28523">
        <ele>632.2041016</ele>
        <time>2012-08-19T09:08:17Z</time>
      </trkpt>
      <trkpt lat="43.95894" lon="7.28518">
        <ele>630.2814941</ele>
        <time>2012-08-19T09:08:21Z</time>
      </trkpt>
      <trkpt lat="43.95883" lon="7.2851">
        <ele>629.8007813</ele>
        <time>2012-08-19T09:08:26Z</time>
      </trkpt>
      <trkpt lat="43.95885" lon="7.28469">
        <ele>628.8395996</ele>
        <time>2012-08-19T09:08:39Z</time>
      </trkpt>
      <trkpt lat="43.95885" lon="7.28429">
        <ele>628.8395996</ele>
        <time>2012-08-19T09:08:51Z</time>
      </trkpt>
      <trkpt lat="43.95889" lon="7.28402">
        <ele>629.3200684</ele>
        <time>2012-08-19T09:09:01Z</time>
      </trkpt>
      <trkpt lat="43.95893" lon="7.28393">
        <ele>629.8007813</ele>
        <time>2012-08-19T09:09:05Z</time>
      </trkpt>
      <trkpt lat="43.95898" lon="7.28383">
        <ele>629.8007813</ele>
        <time>2012-08-19T09:09:11Z</time>
      </trkpt>
      <trkpt lat="43.95908" lon="7.28361">
        <ele>632.2041016</ele>
        <time>2012-08-19T09:09:25Z</time>
      </trkpt>
      <trkpt lat="43.9591" lon="7.28345">
        <ele>633.6459961</ele>
        <time>2012-08-19T09:09:35Z</time>
      </trkpt>
      <trkpt lat="43.95905" lon="7.28339">
        <ele>633.6459961</ele>
        <time>2012-08-19T09:09:38Z</time>
      </trkpt>
      <trkpt lat="43.9591" lon="7.28324">
        <ele>637.4914551</ele>
        <time>2012-08-19T09:09:49Z</time>
      </trkpt>
      <trkpt lat="43.95897" lon="7.28318">
        <ele>637.972168</ele>
        <time>2012-08-19T09:09:55Z</time>
      </trkpt>
      <trkpt lat="43.95866" lon="7.28309">
        <ele>638.9335938</ele>
        <time>2012-08-19T09:10:14Z</time>
      </trkpt>
      <trkpt lat="43.95855" lon="7.2831">
        <ele>640.3754883</ele>
        <time>2012-08-19T09:10:22Z</time>
      </trkpt>
      <trkpt lat="43.95838" lon="7.28338">
        <ele>640.855957</ele>
        <time>2012-08-19T09:10:32Z</time>
      </trkpt>
      <trkpt lat="43.95823" lon="7.28344">
        <ele>641.8173828</ele>
        <time>2012-08-19T09:10:43Z</time>
      </trkpt>
      <trkpt lat="43.95818" lon="7.28344">
        <ele>641.8173828</ele>
        <time>2012-08-19T09:10:46Z</time>
      </trkpt>
      <trkpt lat="43.95812" lon="7.2832">
        <ele>640.3754883</ele>
        <time>2012-08-19T09:10:56Z</time>
      </trkpt>
      <trkpt lat="43.95812" lon="7.28304">
        <ele>642.2980957</ele>
        <time>2012-08-19T09:11:06Z</time>
      </trkpt>
      <trkpt lat="43.9581" lon="7.28288">
        <ele>643.2592773</ele>
        <time>2012-08-19T09:11:15Z</time>
      </trkpt>
      <trkpt lat="43.95812" lon="7.28271">
        <ele>643.7399902</ele>
        <time>2012-08-19T09:11:25Z</time>
      </trkpt>
      <trkpt lat="43.95815" lon="7.28262">
        <ele>645.1818848</ele>
        <time>2012-08-19T09:11:32Z</time>
      </trkpt>
      <trkpt lat="43.9582" lon="7.28253">
        <ele>646.1433105</ele>
        <time>2012-08-19T09:11:39Z</time>
      </trkpt>
      <trkpt lat="43.95812" lon="7.28251">
        <ele>646.1433105</ele>
        <time>2012-08-19T09:11:44Z</time>
      </trkpt>
      <trkpt lat="43.95786" lon="7.28245">
        <ele>646.1433105</ele>
        <time>2012-08-19T09:12:02Z</time>
      </trkpt>
      <trkpt lat="43.95776" lon="7.28249">
        <ele>644.2207031</ele>
        <time>2012-08-19T09:12:09Z</time>
      </trkpt>
      <trkpt lat="43.95747" lon="7.28253">
        <ele>645.6625977</ele>
        <time>2012-08-19T09:12:21Z</time>
      </trkpt>
      <trkpt lat="43.95725" lon="7.28247">
        <ele>647.1044922</ele>
        <time>2012-08-19T09:12:37Z</time>
      </trkpt>
      <trkpt lat="43.95702" lon="7.28242">
        <ele>649.9885254</ele>
        <time>2012-08-19T09:12:54Z</time>
      </trkpt>
      <trkpt lat="43.95698" lon="7.28241">
        <ele>652.8725586</ele>
        <time>2012-08-19T09:13:00Z</time>
      </trkpt>
      <trkpt lat="43.95673" lon="7.28237">
        <ele>653.3532715</ele>
        <time>2012-08-19T09:13:17Z</time>
      </trkpt>
      <trkpt lat="43.95663" lon="7.28238">
        <ele>653.8339844</ele>
        <time>2012-08-19T09:13:24Z</time>
      </trkpt>
      <trkpt lat="43.95657" lon="7.28234">
        <ele>652.8725586</ele>
        <time>2012-08-19T09:13:29Z</time>
      </trkpt>
      <trkpt lat="43.95633" lon="7.28226">
        <ele>654.795166</ele>
        <time>2012-08-19T09:13:42Z</time>
      </trkpt>
      <trkpt lat="43.95631" lon="7.28225">
        <ele>655.2758789</ele>
        <time>2012-08-19T09:13:45Z</time>
      </trkpt>
      <trkpt lat="43.95625" lon="7.28219">
        <ele>654.795166</ele>
        <time>2012-08-19T09:13:51Z</time>
      </trkpt>
      <trkpt lat="43.95622" lon="7.28214">
        <ele>655.2758789</ele>
        <time>2012-08-19T09:13:54Z</time>
      </trkpt>
      <trkpt lat="43.95621" lon="7.28201">
        <ele>655.2758789</ele>
        <time>2012-08-19T09:14:01Z</time>
      </trkpt>
      <trkpt lat="43.95613" lon="7.28187">
        <ele>652.8725586</ele>
        <time>2012-08-19T09:14:12Z</time>
      </trkpt>
      <trkpt lat="43.95601" lon="7.28177">
        <ele>652.3918457</ele>
        <time>2012-08-19T09:14:22Z</time>
      </trkpt>
      <trkpt lat="43.95599" lon="7.28179">
        <ele>652.3918457</ele>
        <time>2012-08-19T09:14:31Z</time>
      </trkpt>
      <trkpt lat="43.9559" lon="7.28164">
        <ele>654.795166</ele>
        <time>2012-08-19T09:14:47Z</time>
      </trkpt>
      <trkpt lat="43.9559" lon="7.28143">
        <ele>656.2370605</ele>
        <time>2012-08-19T09:15:08Z</time>
      </trkpt>
      <trkpt lat="43.95578" lon="7.28136">
        <ele>659.1210938</ele>
        <time>2012-08-19T09:15:23Z</time>
      </trkpt>
      <trkpt lat="43.95558" lon="7.28126">
        <ele>661.5244141</ele>
        <time>2012-08-19T09:15:40Z</time>
      </trkpt>
      <trkpt lat="43.95547" lon="7.28106">
        <ele>663.4470215</ele>
        <time>2012-08-19T09:15:55Z</time>
      </trkpt>
      <trkpt lat="43.95541" lon="7.281">
        <ele>663.9274902</ele>
        <time>2012-08-19T09:16:02Z</time>
      </trkpt>
      <trkpt lat="43.95535" lon="7.28084">
        <ele>665.3696289</ele>
        <time>2012-08-19T09:16:12Z</time>
      </trkpt>
      <trkpt lat="43.95535" lon="7.28076">
        <ele>665.8503418</ele>
        <time>2012-08-19T09:16:16Z</time>
      </trkpt>
      <trkpt lat="43.9554" lon="7.28056">
        <ele>666.3308105</ele>
        <time>2012-08-19T09:16:28Z</time>
      </trkpt>
      <trkpt lat="43.95538" lon="7.28015">
        <ele>668.2536621</ele>
        <time>2012-08-19T09:16:43Z</time>
      </trkpt>
      <trkpt lat="43.95532" lon="7.27985">
        <ele>671.6181641</ele>
        <time>2012-08-19T09:16:54Z</time>
      </trkpt>
      <trkpt lat="43.95534" lon="7.27981">
        <ele>671.6181641</ele>
        <time>2012-08-19T09:16:57Z</time>
      </trkpt>
      <trkpt lat="43.95543" lon="7.27972">
        <ele>671.6181641</ele>
        <time>2012-08-19T09:17:02Z</time>
      </trkpt>
      <trkpt lat="43.95557" lon="7.27974">
        <ele>670.6569824</ele>
        <time>2012-08-19T09:17:10Z</time>
      </trkpt>
      <trkpt lat="43.95572" lon="7.27996">
        <ele>671.1376953</ele>
        <time>2012-08-19T09:17:20Z</time>
      </trkpt>
    </trkseg>
  </trk>
</gpx>